Wetterdaten: Mittwoch, 04.09.2019
Datum Zeit Temp. Aussen Temp. o. S. +5cm Feuchte Auss Luftdruck Regen Sonnenschein Regendauer Solar Windben Empfang
04.09.2019 00:00 17,1 C 16,1 C 16,1 C 80 % 1022,4 hPa 0,0 l/m 0 min 0 min 0 W/m 3,2 km/h (1 Bft) 100,00 %
04.09.2019 00:02 17,0 C 16,1 C 16,1 C 80 % 1022,4 hPa 0,0 l/m 0 min 0 min 0 W/m 3,2 km/h (1 Bft) 100,00 %
04.09.2019 00:04 17,0 C 16,1 C 15,6 C 80 % 1022,4 hPa 0,0 l/m 0 min 0 min 0 W/m 6,4 km/h (2 Bft) 100,00 %
04.09.2019 00:08 17,0 C 16,1 C 15,6 C 80 % 1022,4 hPa 0,0 l/m 0 min 0 min 0 W/m 6,4 km/h (2 Bft) 96,77 %
04.09.2019 00:10 17,0 C 16,1 C 15,6 C 80 % 1022,3 hPa 0,0 l/m 0 min 0 min 0 W/m 6,4 km/h (2 Bft) 100,00 %
04.09.2019 00:12 16,9 C 16,1 C 15,6 C 80 % 1022,5 hPa 0,0 l/m 0 min 0 min 0 W/m 0,0 km/h (0 Bft) 100,00 %
04.09.2019 00:14 16,9 C 16,1 C 15,6 C 80 % 1022,4 hPa 0,0 l/m 0 min 0 min 0 W/m 6,4 km/h (2 Bft) 97,87 %
04.09.2019 00:16 16,9 C 16,1 C 15,6 C 80 % 1022,4 hPa 0,0 l/m 0 min 0 min 0 W/m 6,4 km/h (2 Bft) 100,00 %
04.09.2019 00:18 16,9 C 16,1 C 15,6 C 80 % 1022,4 hPa 0,0 l/m 0 min 0 min 0 W/m 6,4 km/h (2 Bft) 100,00 %
04.09.2019 00:20 16,9 C 16,1 C 15,6 C 80 % 1022,4 hPa 0,0 l/m 0 min 0 min 0 W/m 6,4 km/h (2 Bft) 97,87 %
04.09.2019 00:22 16,9 C 16,1 C 15,6 C 80 % 1022,3 hPa 0,0 l/m 0 min 0 min 0 W/m 12,9 km/h (3 Bft) 97,87 %
04.09.2019 00:24 16,9 C 16,1 C 15,6 C 80 % 1022,3 hPa 0,0 l/m 0 min 0 min 0 W/m 9,7 km/h (2 Bft) 100,00 %
04.09.2019 00:26 16,9 C 16,1 C 15,6 C 81 % 1022,2 hPa 0,0 l/m 0 min 0 min 0 W/m 6,4 km/h (2 Bft) 100,00 %
04.09.2019 00:28 16,9 C 16,1 C 15,6 C 81 % 1022,3 hPa 0,0 l/m 0 min 0 min 0 W/m 12,9 km/h (3 Bft) 97,87 %
04.09.2019 00:30 16,9 C 16,1 C 15,6 C 81 % 1022,3 hPa 0,0 l/m 0 min 0 min 0 W/m 6,4 km/h (2 Bft) 97,83 %
04.09.2019 00:32 16,9 C 16,1 C 15,6 C 81 % 1022,2 hPa 0,0 l/m 0 min 0 min 0 W/m 9,7 km/h (2 Bft) 100,00 %
04.09.2019 00:34 16,8 C 16,1 C 15,6 C 81 % 1022,2 hPa 0,0 l/m 0 min 0 min 0 W/m 3,2 km/h (1 Bft) 97,87 %
04.09.2019 00:36 16,8 C 16,1 C 15,6 C 81 % 1022,2 hPa 0,0 l/m 0 min 0 min 0 W/m 6,4 km/h (2 Bft) 97,87 %
04.09.2019 00:38 16,8 C 16,1 C 15,6 C 81 % 1022,2 hPa 0,0 l/m 0 min 0 min 0 W/m 9,7 km/h (2 Bft) 97,87 %
04.09.2019 00:40 16,8 C 16,1 C 15,6 C 81 % 1022,1 hPa 0,0 l/m 0 min 0 min 0 W/m 9,7 km/h (2 Bft) 97,87 %
04.09.2019 00:42 16,8 C 16,1 C 15,6 C 81 % 1022,1 hPa 0,0 l/m 0 min 0 min 0 W/m 9,7 km/h (2 Bft) 97,83 %
04.09.2019 00:44 16,8 C 16,1 C 15,6 C 81 % 1022,1 hPa 0,0 l/m 0 min 0 min 0 W/m 9,7 km/h (2 Bft) 97,87 %
04.09.2019 00:46 16,8 C 16,1 C 15,6 C 81 % 1022,1 hPa 0,0 l/m 0 min 0 min 0 W/m 9,7 km/h (2 Bft) 97,87 %
04.09.2019 00:48 16,8 C 16,1 C 15,6 C 81 % 1022,1 hPa 0,0 l/m 0 min 0 min 0 W/m 6,4 km/h (2 Bft) 97,87 %
04.09.2019 00:50 16,8 C 16,1 C 15,6 C 81 % 1022,1 hPa 0,0 l/m 0 min 0 min 0 W/m 6,4 km/h (2 Bft) 97,87 %
04.09.2019 00:52 16,8 C 16,1 C 15,6 C 81 % 1022,1 hPa 0,0 l/m 0 min 0 min 0 W/m 9,7 km/h (2 Bft) 100,00 %
04.09.2019 00:54 16,8 C 16,1 C 15,6 C 81 % 1022,1 hPa 0,0 l/m 0 min 0 min 0 W/m 6,4 km/h (2 Bft) 97,83 %
04.09.2019 00:56 16,8 C 16,1 C 15,6 C 82 % 1022,0 hPa 0,0 l/m 0 min 0 min 0 W/m 3,2 km/h (1 Bft) 97,87 %
04.09.2019 00:58 16,8 C 16,1 C 15,6 C 82 % 1022,0 hPa 0,0 l/m 0 min 0 min 0 W/m 9,7 km/h (2 Bft) 91,49 %
04.09.2019 01:00 16,8 C 16,1 C 15,6 C 82 % 1022,0 hPa 0,0 l/m 0 min 0 min 0 W/m 6,4 km/h (2 Bft) 95,74 %
04.09.2019 01:02 16,8 C 16,1 C 15,6 C 82 % 1022,0 hPa 0,0 l/m 0 min 0 min 0 W/m 6,4 km/h (2 Bft) 93,62 %
04.09.2019 01:04 16,8 C 16,1 C 15,6 C 82 % 1021,9 hPa 0,0 l/m 0 min 0 min 0 W/m 6,4 km/h (2 Bft) 95,65 %
04.09.2019 01:06 16,8 C 16,1 C 16,1 C 82 % 1021,9 hPa 0,0 l/m 0 min 0 min 0 W/m 9,7 km/h (2 Bft) 95,74 %
04.09.2019 01:08 16,8 C 16,1 C 16,1 C 82 % 1021,9 hPa 0,0 l/m 0 min 0 min 0 W/m 3,2 km/h (1 Bft) 95,74 %
04.09.2019 01:10 16,8 C 16,1 C 16,1 C 82 % 1021,9 hPa 0,0 l/m 0 min 0 min 0 W/m 3,2 km/h (1 Bft) 95,74 %
04.09.2019 01:12 16,8 C 16,1 C 16,1 C 82 % 1021,9 hPa 0,0 l/m 0 min 0 min 0 W/m 6,4 km/h (2 Bft) 93,62 %
04.09.2019 01:14 16,8 C 16,1 C 16,1 C 82 % 1021,8 hPa 0,0 l/m 0 min 0 min 0 W/m 9,7 km/h (2 Bft) 95,74 %
04.09.2019 01:16 16,8 C 16,1 C 16,1 C 82 % 1021,8 hPa 0,0 l/m 0 min 0 min 0 W/m 9,7 km/h (2 Bft) 93,48 %
04.09.2019 01:18 16,8 C 16,1 C 16,1 C 82 % 1021,8 hPa 0,0 l/m 0 min 0 min 0 W/m 3,2 km/h (1 Bft) 95,74 %
04.09.2019 01:20 16,8 C 16,1 C 16,1 C 82 % 1021,7 hPa 0,0 l/m 0 min 0 min 0 W/m 6,4 km/h (2 Bft) 95,74 %
04.09.2019 01:22 16,8 C 16,1 C 16,1 C 82 % 1021,8 hPa 0,0 l/m 0 min 0 min 0 W/m 6,4 km/h (2 Bft) 95,74 %
04.09.2019 01:24 16,8 C 16,1 C 16,1 C 82 % 1021,8 hPa 0,0 l/m 0 min 0 min 0 W/m 12,9 km/h (3 Bft) 95,74 %
04.09.2019 01:26 16,8 C 16,1 C 16,1 C 82 % 1021,8 hPa 0,0 l/m 0 min 0 min 0 W/m 6,4 km/h (2 Bft) 97,87 %
04.09.2019 01:28 16,8 C 16,1 C 16,1 C 81 % 1021,7 hPa 0,0 l/m 0 min 0 min 0 W/m 0,0 km/h (0 Bft) 97,83 %
04.09.2019 01:30 16,8 C 16,1 C 16,1 C 81 % 1021,7 hPa 0,0 l/m 0 min 0 min 0 W/m 9,7 km/h (2 Bft) 97,87 %
04.09.2019 01:32 16,8 C 16,1 C 16,1 C 81 % 1021,6 hPa 0,0 l/m 0 min 0 min 0 W/m 0,0 km/h (0 Bft) 97,87 %
04.09.2019 01:34 16,8 C 16,1 C 16,1 C 81 % 1021,5 hPa 0,0 l/m 0 min 0 min 0 W/m 3,2 km/h (1 Bft) 95,74 %
04.09.2019 01:36 16,8 C 16,1 C 16,1 C 81 % 1021,6 hPa 0,0 l/m 0 min 0 min 0 W/m 9,7 km/h (2 Bft) 97,87 %
04.09.2019 01:38 16,8 C 16,1 C 16,1 C 81 % 1021,6 hPa 0,0 l/m 0 min 0 min 0 W/m 9,7 km/h (2 Bft) 97,87 %
04.09.2019 01:40 16,8 C 16,1 C 16,1 C 81 % 1021,6 hPa 0,0 l/m 0 min 0 min 0 W/m 3,2 km/h (1 Bft) 95,65 %
04.09.2019 01:42 16,8 C 16,1 C 16,1 C 81 % 1021,5 hPa 0,0 l/m 0 min 0 min 0 W/m 3,2 km/h (1 Bft) 97,87 %
04.09.2019 01:44 16,8 C 16,1 C 16,1 C 81 % 1021,5 hPa 0,0 l/m 0 min 0 min 0 W/m 3,2 km/h (1 Bft) 97,87 %
04.09.2019 01:46 16,8 C 16,1 C 15,6 C 81 % 1021,5 hPa 0,0 l/m 0 min 0 min 0 W/m 9,7 km/h (2 Bft) 100,00 %
04.09.2019 01:48 16,8 C 16,1 C 15,6 C 81 % 1021,5 hPa 0,0 l/m 0 min 0 min 0 W/m 0,0 km/h (0 Bft) 97,87 %
04.09.2019 01:50 16,8 C 16,1 C 15,6 C 81 % 1021,4 hPa 0,0 l/m 0 min 0 min 0 W/m 3,2 km/h (1 Bft) 100,00 %
04.09.2019 01:52 16,8 C 16,1 C 15,6 C 81 % 1021,4 hPa 0,0 l/m 0 min 0 min 0 W/m 0,0 km/h (0 Bft) 100,00 %
04.09.2019 01:54 16,8 C 16,1 C 15,6 C 81 % 1021,4 hPa 0,0 l/m 0 min 0 min 0 W/m 6,4 km/h (2 Bft) 100,00 %
04.09.2019 01:56 16,8 C 16,1 C 15,6 C 81 % 1021,4 hPa 0,0 l/m 0 min 0 min 0 W/m 3,2 km/h (1 Bft) 97,87 %
04.09.2019 01:58 16,8 C 16,1 C 15,6 C 81 % 1021,4 hPa 0,0 l/m 0 min 0 min 0 W/m 9,7 km/h (2 Bft) 100,00 %
04.09.2019 02:00 16,8 C 16,1 C 15,6 C 81 % 1021,4 hPa 0,0 l/m 0 min 0 min 0 W/m 6,4 km/h (2 Bft) 100,00 %
04.09.2019 02:02 16,8 C 16,1 C 15,6 C 81 % 1021,4 hPa 0,0 l/m 0 min 0 min 0 W/m 3,2 km/h (1 Bft) 100,00 %
04.09.2019 02:04 16,8 C 16,1 C 15,6 C 81 % 1021,4 hPa 0,0 l/m 0 min 0 min 0 W/m 9,7 km/h (2 Bft) 100,00 %
04.09.2019 02:06 16,8 C 16,1 C 15,6 C 81 % 1021,4 hPa 0,0 l/m 0 min 0 min 0 W/m 3,2 km/h (1 Bft) 100,00 %
04.09.2019 02:08 16,8 C 16,1 C 15,6 C 81 % 1021,4 hPa 0,0 l/m 0 min 0 min 0 W/m 9,7 km/h (2 Bft) 100,00 %
04.09.2019 02:10 16,8 C 16,1 C 15,6 C 81 % 1021,4 hPa 0,0 l/m 0 min 0 min 0 W/m 6,4 km/h (2 Bft) 100,00 %
04.09.2019 02:12 16,8 C 15,6 C 15,6 C 82 % 1021,4 hPa 0,0 l/m 0 min 0 min 0 W/m 3,2 km/h (1 Bft) 100,00 %
04.09.2019 02:14 16,8 C 15,6 C 15,6 C 82 % 1021,4 hPa 0,0 l/m 0 min 0 min 0 W/m 6,4 km/h (2 Bft) 97,83 %
04.09.2019 02:16 16,8 C 15,6 C 15,6 C 82 % 1021,4 hPa 0,0 l/m 0 min 0 min 0 W/m 6,4 km/h (2 Bft) 97,87 %
04.09.2019 02:18 16,8 C 15,6 C 15,6 C 82 % 1021,3 hPa 0,0 l/m 0 min 0 min 0 W/m 3,2 km/h (1 Bft) 97,87 %
04.09.2019 02:20 16,8 C 15,6 C 15,6 C 82 % 1021,3 hPa 0,0 l/m 0 min 0 min 0 W/m 6,4 km/h (2 Bft) 97,87 %
04.09.2019 02:22 16,8 C 15,6 C 15,6 C 82 % 1021,3 hPa 0,0 l/m 0 min 0 min 0 W/m 0,0 km/h (0 Bft) 97,87 %
04.09.2019 02:24 16,8 C 15,6 C 15,6 C 82 % 1021,2 hPa 0,0 l/m 0 min 0 min 0 W/m 6,4 km/h (2 Bft) 97,87 %
04.09.2019 02:26 16,7 C 15,6 C 15,6 C 82 % 1021,3 hPa 0,0 l/m 0 min 0 min 0 W/m 0,0 km/h (0 Bft) 97,83 %
04.09.2019 02:28 16,7 C 15,6 C 15,6 C 82 % 1021,3 hPa 0,0 l/m 0 min 0 min 0 W/m 0,0 km/h (0 Bft) 97,87 %
04.09.2019 02:30 16,7 C 15,6 C 15,6 C 82 % 1021,3 hPa 0,0 l/m 0 min 0 min 0 W/m 6,4 km/h (2 Bft) 95,74 %
04.09.2019 02:32 16,7 C 15,6 C 15,6 C 82 % 1021,2 hPa 0,0 l/m 0 min 0 min 0 W/m 3,2 km/h (1 Bft) 97,87 %
04.09.2019 02:34 16,7 C 15,6 C 15,6 C 82 % 1021,2 hPa 0,0 l/m 0 min 0 min 0 W/m 0,0 km/h (0 Bft) 97,87 %
04.09.2019 02:36 16,7 C 15,6 C 15,6 C 82 % 1021,2 hPa 0,0 l/m 0 min 0 min 0 W/m 9,7 km/h (2 Bft) 97,87 %
04.09.2019 02:38 16,7 C 15,6 C 15,6 C 82 % 1021,1 hPa 0,0 l/m 0 min 0 min 0 W/m 3,2 km/h (1 Bft) 97,83 %
04.09.2019 02:40 16,7 C 15,6 C 15,6 C 82 % 1021,1 hPa 0,0 l/m 0 min 0 min 0 W/m 0,0 km/h (0 Bft) 97,87 %
04.09.2019 02:42 16,7 C 15,6 C 15,6 C 82 % 1021,1 hPa 0,0 l/m 0 min 0 min 0 W/m 0,0 km/h (0 Bft) 97,87 %
04.09.2019 02:44 16,7 C 15,6 C 15,6 C 82 % 1021,1 hPa 0,0 l/m 0 min 0 min 0 W/m 3,2 km/h (1 Bft) 95,74 %
04.09.2019 02:46 16,7 C 15,6 C 15,6 C 82 % 1021,0 hPa 0,0 l/m 0 min 0 min 0 W/m 6,4 km/h (2 Bft) 97,87 %
04.09.2019 02:48 16,6 C 15,6 C 15,6 C 82 % 1021,0 hPa 0,0 l/m 0 min 0 min 0 W/m 3,2 km/h (1 Bft) 97,87 %
04.09.2019 02:50 16,6 C 15,6 C 15,6 C 82 % 1021,0 hPa 0,0 l/m 0 min 0 min 0 W/m 6,4 km/h (2 Bft) 97,83 %
04.09.2019 02:52 16,6 C 15,6 C 15,6 C 82 % 1020,9 hPa 0,0 l/m 0 min 0 min 0 W/m 6,4 km/h (2 Bft) 97,87 %
04.09.2019 02:54 16,6 C 15,6 C 15,6 C 82 % 1020,9 hPa 0,0 l/m 0 min 0 min 0 W/m 6,4 km/h (2 Bft) 91,49 %
04.09.2019 02:56 16,6 C 15,6 C 15,6 C 82 % 1020,8 hPa 0,0 l/m 0 min 0 min 0 W/m 3,2 km/h (1 Bft) 97,87 %
04.09.2019 02:58 16,6 C 15,6 C 15,6 C 82 % 1020,9 hPa 0,0 l/m 0 min 0 min 0 W/m 9,7 km/h (2 Bft) 97,87 %
04.09.2019 03:00 16,6 C 15,6 C 15,6 C 82 % 1020,8 hPa 0,0 l/m 0 min 0 min 0 W/m 3,2 km/h (1 Bft) 97,83 %
04.09.2019 03:02 16,6 C 15,6 C 15,6 C 82 % 1020,8 hPa 0,0 l/m 0 min 0 min 0 W/m 3,2 km/h (1 Bft) 97,87 %
04.09.2019 03:04 16,6 C 15,6 C 15,6 C 82 % 1020,8 hPa 0,0 l/m 0 min 0 min 0 W/m 3,2 km/h (1 Bft) 97,87 %
04.09.2019 03:06 16,6 C 15,6 C 15,6 C 82 % 1020,8 hPa 0,0 l/m 0 min 0 min 0 W/m 3,2 km/h (1 Bft) 97,87 %
04.09.2019 03:08 16,6 C 15,6 C 15,6 C 82 % 1020,8 hPa 0,0 l/m 0 min 0 min 0 W/m 6,4 km/h (2 Bft) 97,87 %
04.09.2019 03:10 16,6 C 15,6 C 15,6 C 82 % 1020,7 hPa 0,0 l/m 0 min 0 min 0 W/m 3,2 km/h (1 Bft) 97,87 %
04.09.2019 03:12 16,6 C 15,6 C 15,6 C 82 % 1020,7 hPa 0,0 l/m 0 min 0 min 0 W/m 6,4 km/h (2 Bft) 97,83 %
04.09.2019 03:14 16,6 C 15,6 C 15,6 C 82 % 1020,7 hPa 0,0 l/m 0 min 0 min 0 W/m 6,4 km/h (2 Bft) 95,74 %
04.09.2019 03:16 16,6 C 15,6 C 15,6 C 82 % 1020,5 hPa 0,0 l/m 0 min 0 min 0 W/m 6,4 km/h (2 Bft) 100,00 %
04.09.2019 03:18 16,6 C 15,6 C 15,6 C 82 % 1020,6 hPa 0,0 l/m 0 min 0 min 0 W/m 9,7 km/h (2 Bft) 100,00 %
04.09.2019 03:20 16,6 C 15,6 C 15,6 C 82 % 1020,6 hPa 0,0 l/m 0 min 0 min 0 W/m 6,4 km/h (2 Bft) 97,87 %
04.09.2019 03:22 16,5 C 15,6 C 15,6 C 82 % 1020,6 hPa 0,0 l/m 0 min 0 min 0 W/m 3,2 km/h (1 Bft) 100,00 %
04.09.2019 03:24 16,5 C 15,6 C 15,6 C 82 % 1020,5 hPa 0,0 l/m 0 min 0 min 0 W/m 9,7 km/h (2 Bft) 97,83 %
04.09.2019 03:26 16,5 C 15,6 C 15,6 C 82 % 1020,6 hPa 0,0 l/m 0 min 0 min 0 W/m 3,2 km/h (1 Bft) 100,00 %
04.09.2019 03:28 16,5 C 15,6 C 15,6 C 83 % 1020,5 hPa 0,0 l/m 0 min 0 min 0 W/m 3,2 km/h (1 Bft) 100,00 %
04.09.2019 03:30 16,5 C 15,6 C 15,6 C 83 % 1020,6 hPa 0,0 l/m 0 min 0 min 0 W/m 6,4 km/h (2 Bft) 97,87 %
04.09.2019 03:32 16,5 C 15,6 C 15,6 C 83 % 1020,4 hPa 0,0 l/m 0 min 0 min 0 W/m 0,0 km/h (0 Bft) 100,00 %
04.09.2019 03:34 16,5 C 15,6 C 15,6 C 83 % 1020,4 hPa 0,0 l/m 0 min 0 min 0 W/m 9,7 km/h (2 Bft) 97,87 %
04.09.2019 03:36 16,5 C 15,6 C 15,6 C 83 % 1020,4 hPa 0,0 l/m 0 min 0 min 0 W/m 9,7 km/h (2 Bft) 97,83 %
04.09.2019 03:38 16,4 C 15,6 C 15,6 C 82 % 1020,4 hPa 0,0 l/m 0 min 0 min 0 W/m 6,4 km/h (2 Bft) 97,87 %
04.09.2019 03:40 16,4 C 15,6 C 15,6 C 82 % 1020,4 hPa 0,0 l/m 0 min 0 min 0 W/m 9,7 km/h (2 Bft) 100,00 %
04.09.2019 03:42 16,4 C 15,6 C 15,6 C 82 % 1020,5 hPa 0,0 l/m 0 min 0 min 0 W/m 6,4 km/h (2 Bft) 93,62 %
04.09.2019 03:44 16,4 C 15,6 C 15,6 C 82 % 1020,4 hPa 0,0 l/m 0 min 0 min 0 W/m 6,4 km/h (2 Bft) 93,62 %
04.09.2019 03:46 16,4 C 15,6 C 15,6 C 83 % 1020,4 hPa 0,0 l/m 0 min 0 min 0 W/m 6,4 km/h (2 Bft) 95,74 %
04.09.2019 03:48 16,4 C 15,6 C 15,6 C 83 % 1020,4 hPa 0,0 l/m 0 min 0 min 0 W/m 6,4 km/h (2 Bft) 93,48 %
04.09.2019 03:50 16,4 C 15,6 C 15,6 C 83 % 1020,3 hPa 0,0 l/m 0 min 0 min 0 W/m 6,4 km/h (2 Bft) 95,74 %
04.09.2019 03:52 16,4 C 15,6 C 15,0 C 83 % 1020,2 hPa 0,0 l/m 0 min 0 min 0 W/m 3,2 km/h (1 Bft) 95,74 %
04.09.2019 03:54 16,4 C 15,6 C 15,0 C 83 % 1020,2 hPa 0,0 l/m 0 min 0 min 0 W/m 9,7 km/h (2 Bft) 97,87 %
04.09.2019 03:56 16,4 C 15,6 C 15,0 C 83 % 1020,2 hPa 0,0 l/m 0 min 0 min 0 W/m 6,4 km/h (2 Bft) 95,74 %
04.09.2019 03:58 16,4 C 15,6 C 15,0 C 83 % 1020,1 hPa 0,0 l/m 0 min 0 min 0 W/m 3,2 km/h (1 Bft) 95,74 %
04.09.2019 04:00 16,4 C 15,6 C 15,0 C 83 % 1020,1 hPa 0,0 l/m 0 min 0 min 0 W/m 0,0 km/h (0 Bft) 95,65 %
04.09.2019 04:02 16,4 C 15,6 C 15,0 C 83 % 1020,0 hPa 0,0 l/m 0 min 0 min 0 W/m 0,0 km/h (0 Bft) 100,00 %
04.09.2019 04:04 16,4 C 15,6 C 15,0 C 83 % 1020,0 hPa 0,0 l/m 0 min 0 min 0 W/m 3,2 km/h (1 Bft) 100,00 %
04.09.2019 04:06 16,4 C 15,6 C 15,0 C 83 % 1019,9 hPa 0,0 l/m 0 min 0 min 0 W/m 0,0 km/h (0 Bft) 93,62 %
04.09.2019 04:08 16,4 C 15,6 C 15,0 C 83 % 1019,9 hPa 0,0 l/m 0 min 0 min 0 W/m 0,0 km/h (0 Bft) 93,62 %
04.09.2019 04:10 16,4 C 15,6 C 15,0 C 83 % 1019,9 hPa 0,0 l/m 0 min 0 min 0 W/m 3,2 km/h (1 Bft) 95,74 %
04.09.2019 04:12 16,4 C 15,6 C 15,0 C 83 % 1019,8 hPa 0,0 l/m 0 min 0 min 0 W/m 0,0 km/h (0 Bft) 95,65 %
04.09.2019 04:14 16,4 C 15,6 C 15,0 C 83 % 1019,9 hPa 0,0 l/m 0 min 0 min 0 W/m 3,2 km/h (1 Bft) 95,74 %
04.09.2019 04:16 16,4 C 15,6 C 15,0 C 83 % 1019,8 hPa 0,0 l/m 0 min 0 min 0 W/m 0,0 km/h (0 Bft) 93,62 %
04.09.2019 04:18 16,4 C 15,6 C 15,0 C 83 % 1019,8 hPa 0,0 l/m 0 min 0 min 0 W/m 3,2 km/h (1 Bft) 95,74 %
04.09.2019 04:20 16,3 C 15,6 C 15,0 C 83 % 1019,8 hPa 0,0 l/m 0 min 0 min 0 W/m 0,0 km/h (0 Bft) 95,74 %
04.09.2019 04:22 16,3 C 15,6 C 15,0 C 83 % 1019,8 hPa 0,0 l/m 0 min 0 min 0 W/m 6,4 km/h (2 Bft) 95,65 %
04.09.2019 04:24 16,3 C 15,6 C 15,0 C 83 % 1019,7 hPa 0,0 l/m 0 min 0 min 0 W/m 6,4 km/h (2 Bft) 95,74 %
04.09.2019 04:26 16,3 C 15,6 C 15,0 C 83 % 1019,7 hPa 0,0 l/m 0 min 0 min 0 W/m 3,2 km/h (1 Bft) 97,87 %
04.09.2019 04:28 16,3 C 15,6 C 15,0 C 83 % 1019,7 hPa 0,0 l/m 0 min 0 min 0 W/m 3,2 km/h (1 Bft) 100,00 %
04.09.2019 04:30 16,3 C 15,6 C 15,0 C 83 % 1019,7 hPa 0,0 l/m 0 min 0 min 0 W/m 3,2 km/h (1 Bft) 95,74 %
04.09.2019 04:32 16,3 C 15,6 C 15,0 C 83 % 1019,7 hPa 0,0 l/m 0 min 0 min 0 W/m 6,4 km/h (2 Bft) 100,00 %
04.09.2019 04:34 16,3 C 15,6 C 15,0 C 83 % 1019,7 hPa 0,0 l/m 0 min 0 min 0 W/m 3,2 km/h (1 Bft) 100,00 %
04.09.2019 04:36 16,3 C 15,6 C 15,0 C 83 % 1019,7 hPa 0,0 l/m 0 min 0 min 0 W/m 6,4 km/h (2 Bft) 100,00 %
04.09.2019 04:38 16,3 C 15,6 C 15,0 C 83 % 1019,7 hPa 0,0 l/m 0 min 0 min 0 W/m 3,2 km/h (1 Bft) 100,00 %
04.09.2019 04:40 16,3 C 15,6 C 15,0 C 83 % 1019,7 hPa 0,0 l/m 0 min 0 min 0 W/m 6,4 km/h (2 Bft) 100,00 %
04.09.2019 04:42 16,3 C 15,6 C 15,0 C 83 % 1019,6 hPa 0,0 l/m 0 min 0 min 0 W/m 0,0 km/h (0 Bft) 97,87 %
04.09.2019 04:44 16,3 C 15,6 C 15,0 C 83 % 1019,6 hPa 0,0 l/m 0 min 0 min 0 W/m 3,2 km/h (1 Bft) 100,00 %
04.09.2019 04:46 16,3 C 15,6 C 15,0 C 83 % 1019,6 hPa 0,0 l/m 0 min 0 min 0 W/m 6,4 km/h (2 Bft) 100,00 %
04.09.2019 04:48 16,3 C 15,6 C 15,0 C 83 % 1019,5 hPa 0,0 l/m 0 min 0 min 0 W/m 9,7 km/h (2 Bft) 97,87 %
04.09.2019 04:50 16,3 C 15,6 C 15,0 C 83 % 1019,5 hPa 0,0 l/m 0 min 0 min 0 W/m 6,4 km/h (2 Bft) 100,00 %
04.09.2019 04:52 16,3 C 15,6 C 15,0 C 83 % 1019,4 hPa 0,0 l/m 0 min 0 min 0 W/m 6,4 km/h (2 Bft) 100,00 %
04.09.2019 04:54 16,3 C 15,6 C 15,0 C 83 % 1019,4 hPa 0,0 l/m 0 min 0 min 0 W/m 0,0 km/h (0 Bft) 100,00 %
04.09.2019 04:56 16,3 C 15,6 C 15,0 C 83 % 1019,4 hPa 0,0 l/m 0 min 0 min 0 W/m 9,7 km/h (2 Bft) 100,00 %
04.09.2019 04:58 16,3 C 15,6 C 15,0 C 83 % 1019,3 hPa 0,0 l/m 0 min 0 min 0 W/m 3,2 km/h (1 Bft) 100,00 %
04.09.2019 05:00 16,3 C 15,6 C 15,0 C 83 % 1019,3 hPa 0,0 l/m 0 min 0 min 0 W/m 9,7 km/h (2 Bft) 100,00 %
04.09.2019 05:02 16,3 C 15,6 C 15,0 C 83 % 1019,3 hPa 0,0 l/m 0 min 0 min 0 W/m 3,2 km/h (1 Bft) 100,00 %
04.09.2019 05:04 16,2 C 15,6 C 15,0 C 83 % 1019,3 hPa 0,0 l/m 0 min 0 min 0 W/m 3,2 km/h (1 Bft) 100,00 %
04.09.2019 05:06 16,2 C 15,6 C 15,0 C 83 % 1019,3 hPa 0,0 l/m 0 min 0 min 0 W/m 12,9 km/h (3 Bft) 100,00 %
04.09.2019 05:08 16,2 C 15,6 C 15,0 C 83 % 1019,3 hPa 0,0 l/m 0 min 0 min 0 W/m 9,7 km/h (2 Bft) 100,00 %
04.09.2019 05:10 16,2 C 15,6 C 15,0 C 83 % 1019,2 hPa 0,0 l/m 0 min 0 min 0 W/m 3,2 km/h (1 Bft) 100,00 %
04.09.2019 05:12 16,2 C 15,6 C 15,0 C 83 % 1019,2 hPa 0,0 l/m 0 min 0 min 0 W/m 12,9 km/h (3 Bft) 100,00 %
04.09.2019 05:14 16,2 C 15,6 C 15,0 C 83 % 1019,2 hPa 0,0 l/m 0 min 0 min 0 W/m 6,4 km/h (2 Bft) 100,00 %
04.09.2019 05:16 16,2 C 15,6 C 15,0 C 83 % 1019,2 hPa 0,0 l/m 0 min 0 min 0 W/m 3,2 km/h (1 Bft) 100,00 %
04.09.2019 05:18 16,2 C 15,6 C 15,0 C 83 % 1019,2 hPa 0,0 l/m 0 min 0 min 0 W/m 9,7 km/h (2 Bft) 100,00 %
04.09.2019 05:20 16,2 C 15,6 C 15,0 C 83 % 1019,1 hPa 0,0 l/m 0 min 0 min 0 W/m 12,9 km/h (3 Bft) 97,83 %
04.09.2019 05:22 16,2 C 15,6 C 15,0 C 83 % 1019,1 hPa 0,0 l/m 0 min 0 min 0 W/m 6,4 km/h (2 Bft) 100,00 %
04.09.2019 05:24 16,2 C 15,6 C 15,0 C 83 % 1019,1 hPa 0,0 l/m 0 min 0 min 0 W/m 6,4 km/h (2 Bft) 100,00 %
04.09.2019 05:26 16,2 C 15,6 C 15,0 C 83 % 1019,1 hPa 0,0 l/m 0 min 0 min 0 W/m 3,2 km/h (1 Bft) 100,00 %
04.09.2019 05:28 16,2 C 15,6 C 15,0 C 83 % 1019,1 hPa 0,0 l/m 0 min 0 min 0 W/m 9,7 km/h (2 Bft) 100,00 %
04.09.2019 05:30 16,2 C 15,6 C 15,0 C 83 % 1019,1 hPa 0,0 l/m 0 min 0 min 0 W/m 9,7 km/h (2 Bft) 100,00 %
04.09.2019 05:32 16,2 C 15,6 C 15,0 C 83 % 1019,2 hPa 0,0 l/m 0 min 0 min 0 W/m 6,4 km/h (2 Bft) 97,83 %
04.09.2019 05:34 16,2 C 15,6 C 15,0 C 83 % 1019,1 hPa 0,0 l/m 0 min 0 min 0 W/m 9,7 km/h (2 Bft) 100,00 %
04.09.2019 05:36 16,2 C 15,6 C 15,0 C 83 % 1019,0 hPa 0,0 l/m 0 min 0 min 0 W/m 9,7 km/h (2 Bft) 100,00 %
04.09.2019 05:38 16,2 C 15,6 C 15,0 C 83 % 1019,0 hPa 0,0 l/m 0 min 0 min 0 W/m 6,4 km/h (2 Bft) 100,00 %
04.09.2019 05:40 16,2 C 15,6 C 15,0 C 82 % 1019,0 hPa 0,0 l/m 0 min 0 min 0 W/m 9,7 km/h (2 Bft) 100,00 %
04.09.2019 05:42 16,2 C 15,6 C 15,0 C 82 % 1019,0 hPa 0,0 l/m 0 min 0 min 0 W/m 9,7 km/h (2 Bft) 100,00 %
04.09.2019 05:44 16,2 C 15,6 C 15,0 C 82 % 1019,0 hPa 0,0 l/m 0 min 0 min 0 W/m 9,7 km/h (2 Bft) 97,83 %
04.09.2019 05:46 16,1 C 15,6 C 15,0 C 82 % 1018,9 hPa 0,0 l/m 0 min 0 min 0 W/m 9,7 km/h (2 Bft) 97,87 %
04.09.2019 05:48 16,1 C 15,6 C 15,0 C 82 % 1019,0 hPa 0,0 l/m 0 min 0 min 0 W/m 3,2 km/h (1 Bft) 97,87 %
04.09.2019 05:50 16,1 C 15,6 C 15,0 C 82 % 1019,0 hPa 0,0 l/m 0 min 0 min 0 W/m 6,4 km/h (2 Bft) 97,87 %
04.09.2019 05:52 16,1 C 15,6 C 15,0 C 82 % 1019,0 hPa 0,0 l/m 0 min 0 min 0 W/m 9,7 km/h (2 Bft) 95,74 %
04.09.2019 05:54 16,1 C 15,6 C 15,0 C 82 % 1018,9 hPa 0,0 l/m 0 min 0 min 0 W/m 6,4 km/h (2 Bft) 97,87 %
04.09.2019 05:56 16,1 C 15,6 C 15,0 C 82 % 1019,0 hPa 0,0 l/m 0 min 0 min 0 W/m 9,7 km/h (2 Bft) 95,65 %
04.09.2019 05:58 16,1 C 15,0 C 15,0 C 82 % 1019,0 hPa 0,0 l/m 0 min 0 min 0 W/m 9,7 km/h (2 Bft) 97,87 %
04.09.2019 06:00 16,1 C 15,0 C 15,0 C 82 % 1019,0 hPa 0,0 l/m 0 min 0 min 0 W/m 9,7 km/h (2 Bft) 97,87 %
04.09.2019 06:02 16,1 C 15,0 C 15,0 C 82 % 1018,9 hPa 0,0 l/m 0 min 0 min 0 W/m 9,7 km/h (2 Bft) 97,87 %
04.09.2019 06:04 16,1 C 15,0 C 15,0 C 82 % 1018,9 hPa 0,0 l/m 0 min 0 min 0 W/m 6,4 km/h (2 Bft) 93,62 %
04.09.2019 06:08 16,1 C 15,0 C 15,0 C 82 % 1018,9 hPa 0,0 l/m 0 min 0 min 0 W/m 12,9 km/h (3 Bft) 96,77 %
04.09.2019 06:10 16,1 C 15,0 C 15,0 C 82 % 1018,9 hPa 0,0 l/m 0 min 0 min 0 W/m 12,9 km/h (3 Bft) 95,74 %
04.09.2019 06:12 16,1 C 15,0 C 15,0 C 82 % 1018,8 hPa 0,0 l/m 0 min 0 min 0 W/m 9,7 km/h (2 Bft) 97,87 %
04.09.2019 06:14 16,1 C 15,0 C 15,0 C 82 % 1018,8 hPa 0,0 l/m 0 min 0 min 0 W/m 6,4 km/h (2 Bft) 97,87 %
04.09.2019 06:16 16,1 C 15,0 C 15,0 C 82 % 1018,9 hPa 0,0 l/m 0 min 0 min 0 W/m 9,7 km/h (2 Bft) 97,87 %
04.09.2019 06:18 16,0 C 15,0 C 15,0 C 82 % 1018,8 hPa 0,0 l/m 0 min 0 min 0 W/m 9,7 km/h (2 Bft) 97,87 %
04.09.2019 06:20 16,0 C 15,0 C 15,0 C 82 % 1018,8 hPa 0,0 l/m 0 min 0 min 0 W/m 6,4 km/h (2 Bft) 95,65 %
04.09.2019 06:22 16,0 C 15,0 C 15,0 C 82 % 1018,8 hPa 0,0 l/m 0 min 0 min 0 W/m 12,9 km/h (3 Bft) 95,74 %
04.09.2019 06:24 16,0 C 15,0 C 15,0 C 82 % 1018,8 hPa 0,0 l/m 0 min 0 min 0 W/m 6,4 km/h (2 Bft) 91,49 %
04.09.2019 06:26 15,9 C 15,0 C 15,0 C 83 % 1018,8 hPa 0,0 l/m 0 min 0 min 0 W/m 6,4 km/h (2 Bft) 95,74 %
04.09.2019 06:28 15,9 C 15,0 C 15,0 C 83 % 1018,8 hPa 0,0 l/m 0 min 0 min 0 W/m 9,7 km/h (2 Bft) 93,62 %
04.09.2019 06:30 15,9 C 15,0 C 15,0 C 83 % 1018,8 hPa 0,0 l/m 0 min 0 min 0 W/m 12,9 km/h (3 Bft) 91,30 %
04.09.2019 06:32 15,9 C 15,0 C 15,0 C 83 % 1018,8 hPa 0,0 l/m 0 min 0 min 0 W/m 9,7 km/h (2 Bft) 91,49 %
04.09.2019 06:34 15,9 C 15,0 C 14,4 C 83 % 1018,8 hPa 0,0 l/m 0 min 0 min 0 W/m 3,2 km/h (1 Bft) 95,74 %
04.09.2019 06:36 15,9 C 15,0 C 14,4 C 83 % 1018,8 hPa 0,0 l/m 0 min 0 min 0 W/m 6,4 km/h (2 Bft) 93,62 %
04.09.2019 06:38 15,9 C 15,0 C 14,4 C 83 % 1018,8 hPa 0,0 l/m 0 min 0 min 0 W/m 6,4 km/h (2 Bft) 93,62 %
04.09.2019 06:40 15,9 C 15,0 C 14,4 C 83 % 1018,8 hPa 0,0 l/m 0 min 0 min 0 W/m 9,7 km/h (2 Bft) 93,62 %
04.09.2019 06:42 15,9 C 15,0 C 15,0 C 83 % 1018,8 hPa 0,0 l/m 0 min 0 min 0 W/m 9,7 km/h (2 Bft) 93,48 %
04.09.2019 06:44 15,9 C 15,0 C 15,0 C 83 % 1018,8 hPa 0,0 l/m 0 min 0 min 0 W/m 9,7 km/h (2 Bft) 93,62 %
04.09.2019 06:46 15,9 C 15,0 C 15,0 C 83 % 1018,8 hPa 0,0 l/m 0 min 0 min 0 W/m 9,7 km/h (2 Bft) 95,74 %
04.09.2019 06:48 15,8 C 15,0 C 14,4 C 83 % 1018,8 hPa 0,0 l/m 0 min 0 min 0 W/m 9,7 km/h (2 Bft) 95,74 %
04.09.2019 06:50 15,8 C 15,0 C 14,4 C 83 % 1018,8 hPa 0,0 l/m 0 min 0 min 0 W/m 9,7 km/h (2 Bft) 95,74 %
04.09.2019 06:52 15,8 C 15,0 C 14,4 C 83 % 1018,8 hPa 0,0 l/m 0 min 0 min 0 W/m 9,7 km/h (2 Bft) 95,74 %
04.09.2019 06:54 15,8 C 15,0 C 14,4 C 83 % 1018,8 hPa 0,0 l/m 0 min 0 min 0 W/m 12,9 km/h (3 Bft) 93,48 %
04.09.2019 06:56 15,8 C 15,0 C 14,4 C 83 % 1018,8 hPa 0,0 l/m 0 min 0 min 0 W/m 9,7 km/h (2 Bft) 95,74 %
04.09.2019 06:58 15,8 C 15,0 C 14,4 C 83 % 1018,8 hPa 0,0 l/m 0 min 0 min 4 W/m 6,4 km/h (2 Bft) 95,74 %
04.09.2019 07:00 15,8 C 15,0 C 14,4 C 83 % 1018,8 hPa 0,0 l/m 0 min 0 min 5 W/m 9,7 km/h (2 Bft) 93,62 %
04.09.2019 07:02 15,8 C 14,4 C 14,4 C 83 % 1018,8 hPa 0,0 l/m 0 min 0 min 6 W/m 3,2 km/h (1 Bft) 93,62 %
04.09.2019 07:04 15,8 C 14,4 C 14,4 C 83 % 1018,8 hPa 0,0 l/m 0 min 0 min 7 W/m 6,4 km/h (2 Bft) 93,62 %
04.09.2019 07:06 15,8 C 15,0 C 14,4 C 83 % 1018,8 hPa 0,0 l/m 0 min 0 min 9 W/m 12,9 km/h (3 Bft) 95,65 %
04.09.2019 07:08 15,7 C 15,0 C 14,4 C 83 % 1018,9 hPa 0,0 l/m 0 min 0 min 10 W/m 16,1 km/h (3 Bft) 95,74 %
04.09.2019 07:10 15,7 C 15,0 C 14,4 C 83 % 1018,8 hPa 0,0 l/m 0 min 0 min 11 W/m 12,9 km/h (3 Bft) 97,87 %
04.09.2019 07:12 15,7 C 15,0 C 14,4 C 83 % 1018,8 hPa 0,0 l/m 0 min 0 min 12 W/m 9,7 km/h (2 Bft) 95,74 %
04.09.2019 07:14 15,7 C 15,0 C 14,4 C 83 % 1018,8 hPa 0,0 l/m 0 min 0 min 14 W/m 9,7 km/h (2 Bft) 97,87 %
04.09.2019 07:16 15,7 C 15,0 C 14,4 C 83 % 1018,8 hPa 0,0 l/m 0 min 0 min 18 W/m 16,1 km/h (3 Bft) 95,74 %
04.09.2019 07:18 15,7 C 15,0 C 14,4 C 83 % 1018,9 hPa 0,0 l/m 0 min 0 min 20 W/m 6,4 km/h (2 Bft) 97,83 %
04.09.2019 07:20 15,7 C 15,0 C 14,4 C 83 % 1018,9 hPa 0,0 l/m 0 min 0 min 20 W/m 16,1 km/h (3 Bft) 97,87 %
04.09.2019 07:22 15,7 C 15,0 C 14,4 C 83 % 1018,8 hPa 0,0 l/m 0 min 0 min 19 W/m 9,7 km/h (2 Bft) 97,87 %
04.09.2019 07:24 15,7 C 15,0 C 15,0 C 83 % 1018,8 hPa 0,0 l/m 0 min 0 min 19 W/m 9,7 km/h (2 Bft) 100,00 %
04.09.2019 07:26 15,7 C 15,0 C 15,0 C 83 % 1018,8 hPa 0,0 l/m 0 min 0 min 19 W/m 6,4 km/h (2 Bft) 100,00 %
04.09.2019 07:28 15,7 C 15,0 C 15,0 C 83 % 1018,8 hPa 0,0 l/m 0 min 0 min 20 W/m 9,7 km/h (2 Bft) 100,00 %
04.09.2019 07:30 15,7 C 15,0 C 15,0 C 83 % 1018,8 hPa 0,0 l/m 0 min 0 min 22 W/m 3,2 km/h (1 Bft) 100,00 %
04.09.2019 07:32 15,7 C 15,0 C 15,0 C 83 % 1018,8 hPa 0,0 l/m 0 min 0 min 23 W/m 6,4 km/h (2 Bft) 100,00 %
04.09.2019 07:34 15,6 C 15,0 C 15,0 C 83 % 1018,7 hPa 0,0 l/m 0 min 0 min 22 W/m 9,7 km/h (2 Bft) 100,00 %
04.09.2019 07:36 15,7 C 15,0 C 15,0 C 83 % 1018,6 hPa 0,0 l/m 0 min 0 min 30 W/m 12,9 km/h (3 Bft) 100,00 %
04.09.2019 07:38 15,7 C 15,0 C 15,0 C 83 % 1018,6 hPa 0,0 l/m 0 min 0 min 33 W/m 6,4 km/h (2 Bft) 100,00 %
04.09.2019 07:40 15,7 C 15,0 C 15,0 C 83 % 1018,5 hPa 0,0 l/m 0 min 0 min 33 W/m 12,9 km/h (3 Bft) 100,00 %
04.09.2019 07:42 15,7 C 15,0 C 15,0 C 83 % 1018,5 hPa 0,0 l/m 0 min 0 min 33 W/m 12,9 km/h (3 Bft) 100,00 %
04.09.2019 07:44 15,7 C 15,0 C 15,0 C 83 % 1018,5 hPa 0,0 l/m 0 min 0 min 35 W/m 12,9 km/h (3 Bft) 100,00 %
04.09.2019 07:46 15,7 C 15,0 C 15,0 C 83 % 1018,5 hPa 0,0 l/m 0 min 0 min 33 W/m 12,9 km/h (3 Bft) 100,00 %
04.09.2019 07:48 15,7 C 15,6 C 15,0 C 83 % 1018,5 hPa 0,0 l/m 0 min 0 min 37 W/m 6,4 km/h (2 Bft) 100,00 %
04.09.2019 07:50 15,7 C 15,6 C 15,0 C 83 % 1018,5 hPa 0,0 l/m 0 min 0 min 40 W/m 12,9 km/h (3 Bft) 100,00 %
04.09.2019 07:52 15,7 C 15,6 C 15,0 C 83 % 1018,5 hPa 0,0 l/m 0 min 0 min 41 W/m 9,7 km/h (2 Bft) 100,00 %
04.09.2019 07:54 15,7 C 15,6 C 15,0 C 83 % 1018,5 hPa 0,0 l/m 0 min 0 min 39 W/m 9,7 km/h (2 Bft) 100,00 %
04.09.2019 07:56 15,7 C 15,6 C 15,0 C 82 % 1018,5 hPa 0,0 l/m 0 min 0 min 31 W/m 12,9 km/h (3 Bft) 100,00 %
04.09.2019 07:58 15,7 C 15,6 C 15,0 C 82 % 1018,5 hPa 0,0 l/m 0 min 0 min 31 W/m 9,7 km/h (2 Bft) 100,00 %
04.09.2019 08:00 15,7 C 15,6 C 15,0 C 82 % 1018,4 hPa 0,0 l/m 0 min 0 min 28 W/m 16,1 km/h (3 Bft) 100,00 %
04.09.2019 08:02 15,7 C 15,0 C 15,0 C 82 % 1018,4 hPa 0,0 l/m 0 min 0 min 20 W/m 16,1 km/h (3 Bft) 100,00 %
04.09.2019 08:04 15,7 C 15,0 C 15,0 C 82 % 1018,4 hPa 0,0 l/m 0 min 0 min 27 W/m 9,7 km/h (2 Bft) 100,00 %
04.09.2019 08:06 15,7 C 15,6 C 15,0 C 82 % 1018,5 hPa 0,0 l/m 0 min 0 min 37 W/m 9,7 km/h (2 Bft) 100,00 %
04.09.2019 08:08 15,7 C 15,6 C 15,0 C 82 % 1018,4 hPa 0,0 l/m 0 min 0 min 46 W/m 9,7 km/h (2 Bft) 100,00 %
04.09.2019 08:10 15,7 C 15,6 C 15,0 C 82 % 1018,4 hPa 0,0 l/m 0 min 0 min 44 W/m 12,9 km/h (3 Bft) 100,00 %
04.09.2019 08:12 15,7 C 15,6 C 15,0 C 82 % 1018,4 hPa 0,0 l/m 0 min 0 min 36 W/m 19,3 km/h (3 Bft) 97,87 %
04.09.2019 08:14 15,8 C 15,6 C 15,0 C 82 % 1018,4 hPa 0,0 l/m 0 min 0 min 53 W/m 6,4 km/h (2 Bft) 100,00 %
04.09.2019 08:16 15,8 C 15,6 C 15,0 C 82 % 1018,4 hPa 0,0 l/m 0 min 0 min 60 W/m 9,7 km/h (2 Bft) 100,00 %
04.09.2019 08:18 15,8 C 15,6 C 15,0 C 82 % 1018,5 hPa 0,0 l/m 0 min 0 min 66 W/m 9,7 km/h (2 Bft) 100,00 %
04.09.2019 08:20 15,8 C 15,6 C 15,0 C 82 % 1018,4 hPa 0,0 l/m 0 min 0 min 69 W/m 6,4 km/h (2 Bft) 100,00 %
04.09.2019 08:22 15,8 C 15,6 C 15,6 C 82 % 1018,4 hPa 0,0 l/m 0 min 0 min 68 W/m 12,9 km/h (3 Bft) 100,00 %
04.09.2019 08:24 15,8 C 15,6 C 15,6 C 82 % 1018,4 hPa 0,0 l/m 0 min 0 min 73 W/m 19,3 km/h (3 Bft) 100,00 %
04.09.2019 08:26 15,8 C 15,6 C 15,0 C 82 % 1018,4 hPa 0,0 l/m 0 min 0 min 64 W/m 12,9 km/h (3 Bft) 100,00 %
04.09.2019 08:28 15,9 C 15,6 C 15,0 C 82 % 1018,3 hPa 0,0 l/m 0 min 0 min 57 W/m 16,1 km/h (3 Bft) 100,00 %
04.09.2019 08:30 15,9 C 15,6 C 15,0 C 82 % 1018,3 hPa 0,0 l/m 0 min 0 min 48 W/m 9,7 km/h (2 Bft) 100,00 %
04.09.2019 08:32 15,9 C 15,6 C 15,0 C 82 % 1018,3 hPa 0,0 l/m 0 min 0 min 58 W/m 9,7 km/h (2 Bft) 100,00 %
04.09.2019 08:34 15,9 C 15,6 C 15,0 C 82 % 1018,3 hPa 0,0 l/m 0 min 0 min 62 W/m 12,9 km/h (3 Bft) 100,00 %
04.09.2019 08:36 15,9 C 15,6 C 15,0 C 82 % 1018,3 hPa 0,0 l/m 0 min 0 min 71 W/m 12,9 km/h (3 Bft) 100,00 %
04.09.2019 08:38 15,9 C 15,6 C 15,0 C 82 % 1018,2 hPa 0,0 l/m 0 min 0 min 67 W/m 16,1 km/h (3 Bft) 100,00 %
04.09.2019 08:40 15,9 C 15,6 C 15,0 C 82 % 1018,3 hPa 0,0 l/m 0 min 0 min 54 W/m 9,7 km/h (2 Bft) 100,00 %
04.09.2019 08:42 15,9 C 15,6 C 15,0 C 82 % 1018,3 hPa 0,0 l/m 0 min 0 min 56 W/m 0,0 km/h (0 Bft) 100,00 %
04.09.2019 08:44 15,9 C 15,6 C 15,0 C 82 % 1018,2 hPa 0,0 l/m 0 min 0 min 71 W/m 12,9 km/h (3 Bft) 97,87 %
04.09.2019 08:46 15,9 C 15,6 C 15,0 C 82 % 1018,2 hPa 0,0 l/m 0 min 0 min 84 W/m 12,9 km/h (3 Bft) 100,00 %
04.09.2019 08:48 15,9 C 15,6 C 15,6 C 82 % 1018,2 hPa 0,0 l/m 0 min 0 min 73 W/m 12,9 km/h (3 Bft) 97,87 %
04.09.2019 08:50 16,0 C 15,6 C 15,6 C 82 % 1018,2 hPa 0,0 l/m 0 min 0 min 72 W/m 12,9 km/h (3 Bft) 100,00 %
04.09.2019 08:52 16,0 C 15,6 C 15,6 C 82 % 1018,1 hPa 0,0 l/m 0 min 0 min 69 W/m 16,1 km/h (3 Bft) 97,87 %
04.09.2019 08:54 16,0 C 16,1 C 15,6 C 82 % 1018,2 hPa 0,0 l/m 0 min 0 min 83 W/m 12,9 km/h (3 Bft) 100,00 %
04.09.2019 08:56 16,0 C 16,1 C 15,6 C 82 % 1018,2 hPa 0,0 l/m 0 min 0 min 97 W/m 12,9 km/h (3 Bft) 97,87 %
04.09.2019 08:58 16,1 C 16,1 C 15,6 C 82 % 1018,2 hPa 0,0 l/m 0 min 0 min 94 W/m 12,9 km/h (3 Bft) 100,00 %
04.09.2019 09:00 16,1 C 16,1 C 15,6 C 82 % 1018,2 hPa 0,0 l/m 0 min 0 min 85 W/m 12,9 km/h (3 Bft) 100,00 %
04.09.2019 09:02 16,1 C 16,1 C 15,6 C 82 % 1018,1 hPa 0,0 l/m 0 min 0 min 80 W/m 16,1 km/h (3 Bft) 95,65 %
04.09.2019 09:04 16,1 C 16,1 C 15,6 C 82 % 1018,1 hPa 0,0 l/m 0 min 0 min 81 W/m 9,7 km/h (2 Bft) 97,87 %
04.09.2019 09:06 16,1 C 16,1 C 15,6 C 82 % 1018,1 hPa 0,0 l/m 0 min 0 min 82 W/m 9,7 km/h (2 Bft) 97,87 %
04.09.2019 09:08 16,1 C 16,1 C 15,6 C 82 % 1018,0 hPa 0,0 l/m 0 min 0 min 80 W/m 25,7 km/h (4 Bft) 95,74 %
04.09.2019 09:10 16,2 C 16,1 C 15,6 C 82 % 1018,1 hPa 0,0 l/m 0 min 0 min 73 W/m 12,9 km/h (3 Bft) 97,87 %
04.09.2019 09:12 16,2 C 16,1 C 15,6 C 82 % 1018,1 hPa 0,0 l/m 0 min 0 min 68 W/m 16,1 km/h (3 Bft) 95,74 %
04.09.2019 09:14 16,2 C 16,1 C 15,6 C 82 % 1018,1 hPa 0,0 l/m 0 min 0 min 67 W/m 9,7 km/h (2 Bft) 95,65 %
04.09.2019 09:16 16,2 C 16,1 C 15,6 C 82 % 1018,0 hPa 0,0 l/m 0 min 0 min 69 W/m 16,1 km/h (3 Bft) 93,62 %
04.09.2019 09:18 16,2 C 16,1 C 15,6 C 81 % 1018,0 hPa 0,0 l/m 0 min 0 min 74 W/m 12,9 km/h (3 Bft) 91,49 %
04.09.2019 09:20 16,2 C 16,1 C 15,6 C 81 % 1018,1 hPa 0,0 l/m 0 min 0 min 75 W/m 12,9 km/h (3 Bft) 95,74 %
04.09.2019 09:22 16,2 C 16,1 C 15,6 C 81 % 1018,0 hPa 0,0 l/m 0 min 0 min 68 W/m 6,4 km/h (2 Bft) 93,62 %
04.09.2019 09:24 16,2 C 16,1 C 15,6 C 81 % 1018,0 hPa 0,0 l/m 0 min 0 min 88 W/m 9,7 km/h (2 Bft) 93,62 %
04.09.2019 09:26 16,2 C 16,1 C 15,6 C 81 % 1018,0 hPa 0,0 l/m 0 min 0 min 76 W/m 9,7 km/h (2 Bft) 93,48 %
04.09.2019 09:28 16,2 C 16,1 C 15,6 C 81 % 1018,0 hPa 0,0 l/m 0 min 0 min 95 W/m 12,9 km/h (3 Bft) 95,74 %
04.09.2019 09:30 16,2 C 16,1 C 15,6 C 81 % 1018,0 hPa 0,0 l/m 0 min 0 min 105 W/m 16,1 km/h (3 Bft) 95,74 %
04.09.2019 09:32 16,3 C 16,1 C 15,6 C 80 % 1018,0 hPa 0,0 l/m 0 min 0 min 108 W/m 16,1 km/h (3 Bft) 91,49 %
04.09.2019 09:34 16,3 C 16,1 C 15,6 C 80 % 1018,0 hPa 0,0 l/m 0 min 0 min 112 W/m 12,9 km/h (3 Bft) 93,62 %
04.09.2019 09:36 16,3 C 16,1 C 15,6 C 80 % 1018,0 hPa 0,0 l/m 0 min 0 min 116 W/m 12,9 km/h (3 Bft) 91,49 %
04.09.2019 09:38 16,3 C 16,1 C 16,1 C 80 % 1018,0 hPa 0,0 l/m 0 min 0 min 114 W/m 29,0 km/h (5 Bft) 95,65 %
04.09.2019 09:40 16,3 C 16,7 C 16,1 C 80 % 1018,0 hPa 0,0 l/m 0 min 0 min 128 W/m 9,7 km/h (2 Bft) 95,74 %
04.09.2019 09:42 16,4 C 16,7 C 16,1 C 80 % 1017,9 hPa 0,0 l/m 0 min 0 min 150 W/m 16,1 km/h (3 Bft) 91,49 %
04.09.2019 09:44 16,4 C 17,2 C 16,7 C 80 % 1017,9 hPa 0,0 l/m 0 min 0 min 168 W/m 16,1 km/h (3 Bft) 95,74 %
04.09.2019 09:46 16,4 C 17,2 C 16,7 C 80 % 1017,9 hPa 0,0 l/m 0 min 0 min 182 W/m 12,9 km/h (3 Bft) 95,74 %
04.09.2019 09:48 16,4 C 17,8 C 16,7 C 80 % 1017,8 hPa 0,0 l/m 0 min 0 min 203 W/m 16,1 km/h (3 Bft) 93,48 %
04.09.2019 09:50 16,5 C 17,8 C 16,7 C 80 % 1017,8 hPa 0,0 l/m 2 min 0 min 231 W/m 32,2 km/h (5 Bft) 95,74 %
04.09.2019 09:52 16,6 C 17,8 C 17,2 C 80 % 1017,8 hPa 0,0 l/m 2 min 0 min 235 W/m 19,3 km/h (3 Bft) 93,62 %
04.09.2019 09:54 16,6 C 17,8 C 17,2 C 79 % 1017,7 hPa 0,0 l/m 2 min 0 min 247 W/m 12,9 km/h (3 Bft) 95,74 %
04.09.2019 09:56 16,7 C 18,3 C 17,2 C 79 % 1017,7 hPa 0,0 l/m 2 min 0 min 259 W/m 19,3 km/h (3 Bft) 93,62 %
04.09.2019 09:58 16,8 C 18,3 C 17,8 C 79 % 1017,7 hPa 0,0 l/m 2 min 0 min 284 W/m 19,3 km/h (3 Bft) 95,74 %
04.09.2019 10:00 16,8 C 18,3 C 17,8 C 78 % 1017,7 hPa 0,0 l/m 2 min 0 min 274 W/m 25,7 km/h (4 Bft) 95,65 %
04.09.2019 10:02 16,9 C 18,3 C 17,8 C 78 % 1017,7 hPa 0,0 l/m 2 min 0 min 286 W/m 19,3 km/h (3 Bft) 95,74 %
04.09.2019 10:04 17,0 C 18,3 C 17,8 C 77 % 1017,7 hPa 0,0 l/m 2 min 0 min 287 W/m 19,3 km/h (3 Bft) 95,92 %
04.09.2019 10:06 17,1 C 18,9 C 18,3 C 77 % 1017,6 hPa 0,0 l/m 2 min 0 min 261 W/m 9,7 km/h (2 Bft) 97,87 %
04.09.2019 10:08 17,2 C 19,4 C 18,9 C 77 % 1017,7 hPa 0,0 l/m 0 min 0 min 229 W/m 9,7 km/h (2 Bft) 95,74 %
04.09.2019 10:10 17,3 C 20,6 C 19,4 C 77 % 1017,6 hPa 0,0 l/m 2 min 0 min 251 W/m 22,5 km/h (4 Bft) 97,87 %
04.09.2019 10:12 17,4 C 21,1 C 21,1 C 77 % 1017,6 hPa 0,0 l/m 2 min 0 min 399 W/m 19,3 km/h (3 Bft) 95,65 %
04.09.2019 10:14 17,5 C 22,2 C 22,2 C 77 % 1017,5 hPa 0,0 l/m 2 min 0 min 386 W/m 19,3 km/h (3 Bft) 97,87 %
04.09.2019 10:16 17,6 C 21,7 C 21,7 C 76 % 1017,5 hPa 0,0 l/m 2 min 0 min 553 W/m 22,5 km/h (4 Bft) 97,87 %
04.09.2019 10:18 17,8 C 20,6 C 21,1 C 75 % 1017,5 hPa 0,0 l/m 2 min 0 min 450 W/m 25,7 km/h (4 Bft) 91,49 %
04.09.2019 10:20 17,9 C 20,0 C 20,0 C 74 % 1017,5 hPa 0,0 l/m 2 min 0 min 336 W/m 22,5 km/h (4 Bft) 97,87 %
04.09.2019 10:22 18,0 C 19,4 C 19,4 C 73 % 1017,5 hPa 0,0 l/m 2 min 0 min 380 W/m 32,2 km/h (5 Bft) 95,65 %
04.09.2019 10:24 18,1 C 20,0 C 20,0 C 73 % 1017,4 hPa 0,0 l/m 2 min 0 min 455 W/m 22,5 km/h (4 Bft) 97,87 %
04.09.2019 10:26 18,1 C 20,0 C 20,0 C 72 % 1017,5 hPa 0,0 l/m 2 min 0 min 406 W/m 25,7 km/h (4 Bft) 97,87 %
04.09.2019 10:28 18,2 C 20,0 C 19,4 C 72 % 1017,4 hPa 0,0 l/m 2 min 0 min 350 W/m 22,5 km/h (4 Bft) 97,87 %
04.09.2019 10:30 18,2 C 21,1 C 20,6 C 72 % 1017,4 hPa 0,0 l/m 2 min 0 min 410 W/m 12,9 km/h (3 Bft) 97,87 %
04.09.2019 10:32 18,2 C 20,0 C 20,0 C 72 % 1017,4 hPa 0,0 l/m 2 min 0 min 352 W/m 19,3 km/h (3 Bft) 97,87 %
04.09.2019 10:34 18,3 C 19,4 C 19,4 C 71 % 1017,4 hPa 0,0 l/m 0 min 0 min 194 W/m 22,5 km/h (4 Bft) 97,83 %
04.09.2019 10:36 18,3 C 20,6 C 20,6 C 71 % 1017,4 hPa 0,0 l/m 0 min 0 min 212 W/m 16,1 km/h (3 Bft) 97,87 %
04.09.2019 10:38 18,4 C 20,0 C 20,0 C 71 % 1017,4 hPa 0,0 l/m 2 min 0 min 624 W/m 32,2 km/h (5 Bft) 97,87 %
04.09.2019 10:40 18,4 C 18,9 C 19,4 C 70 % 1017,3 hPa 0,0 l/m 2 min 0 min 454 W/m 16,1 km/h (3 Bft) 97,87 %
04.09.2019 10:42 18,4 C 21,1 C 20,6 C 70 % 1017,3 hPa 0,0 l/m 0 min 0 min 147 W/m 22,5 km/h (4 Bft) 97,87 %
04.09.2019 10:44 18,5 C 21,7 C 21,7 C 70 % 1017,3 hPa 0,0 l/m 2 min 0 min 647 W/m 19,3 km/h (3 Bft) 100,00 %
04.09.2019 10:46 18,6 C 22,2 C 22,2 C 70 % 1017,2 hPa 0,0 l/m 2 min 0 min 658 W/m 19,3 km/h (3 Bft) 100,00 %
04.09.2019 10:48 18,7 C 23,3 C 22,8 C 70 % 1017,1 hPa 0,0 l/m 2 min 0 min 652 W/m 19,3 km/h (3 Bft) 100,00 %
04.09.2019 10:50 18,8 C 22,2 C 22,2 C 70 % 1017,2 hPa 0,0 l/m 2 min 0 min 672 W/m 22,5 km/h (4 Bft) 100,00 %
04.09.2019 10:52 18,9 C 22,8 C 22,2 C 69 % 1017,1 hPa 0,0 l/m 2 min 0 min 673 W/m 19,3 km/h (3 Bft) 100,00 %
04.09.2019 10:54 19,0 C 22,8 C 23,3 C 69 % 1017,1 hPa 0,0 l/m 2 min 0 min 666 W/m 9,7 km/h (2 Bft) 100,00 %
04.09.2019 10:56 19,1 C 23,9 C 23,9 C 69 % 1017,1 hPa 0,0 l/m 2 min 0 min 676 W/m 19,3 km/h (3 Bft) 100,00 %
04.09.2019 10:58 19,2 C 23,3 C 22,2 C 69 % 1017,1 hPa 0,0 l/m 2 min 0 min 723 W/m 22,5 km/h (4 Bft) 100,00 %
04.09.2019 11:00 19,3 C 23,3 C 21,7 C 68 % 1017,1 hPa 0,0 l/m 2 min 0 min 745 W/m 16,1 km/h (3 Bft) 100,00 %
04.09.2019 11:02 19,4 C 23,9 C 21,1 C 68 % 1017,0 hPa 0,0 l/m 2 min 0 min 744 W/m 19,3 km/h (3 Bft) 100,00 %
04.09.2019 11:04 19,6 C 24,4 C 20,6 C 68 % 1017,0 hPa 0,0 l/m 2 min 0 min 734 W/m 16,1 km/h (3 Bft) 100,00 %
04.09.2019 11:06 19,7 C 24,4 C 20,6 C 68 % 1017,0 hPa 0,0 l/m 2 min 0 min 739 W/m 22,5 km/h (4 Bft) 100,00 %
04.09.2019 11:08 19,8 C 24,4 C 20,6 C 68 % 1016,9 hPa 0,0 l/m 2 min 0 min 750 W/m 19,3 km/h (3 Bft) 100,00 %
04.09.2019 11:10 19,9 C 23,3 C 20,6 C 67 % 1016,9 hPa 0,0 l/m 2 min 0 min 622 W/m 22,5 km/h (4 Bft) 100,00 %
04.09.2019 11:12 20,0 C 23,3 C 20,0 C 67 % 1016,9 hPa 0,0 l/m 2 min 0 min 450 W/m 12,9 km/h (3 Bft) 100,00 %
04.09.2019 11:14 20,1 C 22,8 C 20,6 C 67 % 1016,9 hPa 0,0 l/m 2 min 0 min 574 W/m 19,3 km/h (3 Bft) 100,00 %
04.09.2019 11:16 20,1 C 23,9 C 20,6 C 66 % 1016,9 hPa 0,0 l/m 2 min 0 min 377 W/m 22,5 km/h (4 Bft) 100,00 %
04.09.2019 11:18 20,2 C 23,9 C 20,0 C 65 % 1016,9 hPa 0,0 l/m 2 min 0 min 674 W/m 19,3 km/h (3 Bft) 100,00 %
04.09.2019 11:20 20,2 C 23,9 C 20,0 C 65 % 1016,8 hPa 0,0 l/m 2 min 0 min 668 W/m 19,3 km/h (3 Bft) 100,00 %
04.09.2019 11:22 20,3 C 25,0 C 20,6 C 66 % 1016,8 hPa 0,0 l/m 2 min 0 min 671 W/m 22,5 km/h (4 Bft) 97,83 %
04.09.2019 11:24 20,4 C 24,4 C 20,0 C 65 % 1016,8 hPa 0,0 l/m 2 min 0 min 673 W/m 19,3 km/h (3 Bft) 97,87 %
04.09.2019 11:26 20,4 C 23,9 C 20,0 C 64 % 1016,8 hPa 0,0 l/m 2 min 0 min 673 W/m 19,3 km/h (3 Bft) 100,00 %
04.09.2019 11:28 20,5 C 24,4 C 20,6 C 64 % 1016,8 hPa 0,0 l/m 2 min 0 min 678 W/m 19,3 km/h (3 Bft) 97,87 %
04.09.2019 11:30 20,6 C 24,4 C 20,6 C 64 % 1016,7 hPa 0,0 l/m 2 min 0 min 687 W/m 22,5 km/h (4 Bft) 97,87 %
04.09.2019 11:32 20,6 C 25,0 C 20,0 C 64 % 1016,6 hPa 0,0 l/m 2 min 0 min 694 W/m 19,3 km/h (3 Bft) 97,87 %
04.09.2019 11:34 20,7 C 24,4 C 20,0 C 64 % 1016,6 hPa 0,0 l/m 2 min 0 min 693 W/m 19,3 km/h (3 Bft) 97,83 %
04.09.2019 11:36 20,7 C 24,4 C 20,6 C 64 % 1016,6 hPa 0,0 l/m 2 min 0 min 694 W/m 32,2 km/h (5 Bft) 95,74 %
04.09.2019 11:38 20,8 C 24,4 C 20,6 C 63 % 1016,6 hPa 0,0 l/m 2 min 0 min 697 W/m 29,0 km/h (5 Bft) 97,87 %
04.09.2019 11:40 20,8 C 25,6 C 20,6 C 64 % 1016,6 hPa 0,0 l/m 2 min 0 min 700 W/m 22,5 km/h (4 Bft) 97,87 %
04.09.2019 11:42 20,9 C 25,6 C 20,6 C 63 % 1016,5 hPa 0,0 l/m 2 min 0 min 702 W/m 16,1 km/h (3 Bft) 95,74 %
04.09.2019 11:44 20,9 C 25,6 C 20,6 C 63 % 1016,5 hPa 0,0 l/m 2 min 0 min 707 W/m 22,5 km/h (4 Bft) 97,83 %
04.09.2019 11:46 21,0 C 25,0 C 20,6 C 63 % 1016,6 hPa 0,0 l/m 2 min 0 min 709 W/m 29,0 km/h (5 Bft) 97,87 %
04.09.2019 11:48 21,1 C 24,4 C 20,6 C 63 % 1016,4 hPa 0,0 l/m 2 min 0 min 713 W/m 25,7 km/h (4 Bft) 97,87 %
04.09.2019 11:50 21,1 C 23,3 C 20,6 C 62 % 1016,5 hPa 0,0 l/m 2 min 0 min 711 W/m 29,0 km/h (5 Bft) 97,87 %
04.09.2019 11:52 21,1 C 23,3 C 20,6 C 62 % 1016,5 hPa 0,0 l/m 2 min 0 min 714 W/m 22,5 km/h (4 Bft) 95,74 %
04.09.2019 11:54 21,0 C 24,4 C 20,6 C 62 % 1016,4 hPa 0,0 l/m 2 min 0 min 720 W/m 29,0 km/h (5 Bft) 95,74 %
04.09.2019 11:56 21,1 C 24,4 C 20,6 C 62 % 1016,4 hPa 0,0 l/m 2 min 0 min 726 W/m 19,3 km/h (3 Bft) 97,83 %
04.09.2019 11:58 21,1 C 25,0 C 20,6 C 63 % 1016,3 hPa 0,0 l/m 2 min 0 min 727 W/m 19,3 km/h (3 Bft) 97,87 %
04.09.2019 12:00 21,1 C 25,6 C 21,1 C 63 % 1016,4 hPa 0,0 l/m 2 min 0 min 726 W/m 25,7 km/h (4 Bft) 97,87 %
04.09.2019 12:02 21,2 C 25,6 C 21,1 C 63 % 1016,3 hPa 0,0 l/m 2 min 0 min 725 W/m 29,0 km/h (5 Bft) 93,62 %
04.09.2019 12:04 21,2 C 25,6 C 21,1 C 63 % 1016,3 hPa 0,0 l/m 2 min 0 min 729 W/m 16,1 km/h (3 Bft) 97,87 %
04.09.2019 12:08 21,3 C 25,0 C 20,6 C 62 % 1016,3 hPa 0,0 l/m 4 min 0 min 735 W/m 29,0 km/h (5 Bft) 95,70 %
04.09.2019 12:10 21,4 C 25,6 C 20,6 C 62 % 1016,4 hPa 0,0 l/m 2 min 0 min 737 W/m 22,5 km/h (4 Bft) 97,87 %
04.09.2019 12:12 21,4 C 26,1 C 21,1 C 62 % 1016,3 hPa 0,0 l/m 2 min 0 min 743 W/m 16,1 km/h (3 Bft) 100,00 %
04.09.2019 12:14 21,5 C 25,6 C 21,1 C 62 % 1016,3 hPa 0,0 l/m 2 min 0 min 747 W/m 22,5 km/h (4 Bft) 97,87 %
04.09.2019 12:16 21,6 C 25,6 C 21,1 C 62 % 1016,2 hPa 0,0 l/m 2 min 0 min 743 W/m 25,7 km/h (4 Bft) 97,87 %
04.09.2019 12:18 21,6 C 25,0 C 21,1 C 62 % 1016,2 hPa 0,0 l/m 2 min 0 min 714 W/m 22,5 km/h (4 Bft) 97,87 %
04.09.2019 12:20 21,6 C 26,1 C 21,1 C 62 % 1016,1 hPa 0,0 l/m 2 min 0 min 756 W/m 16,1 km/h (3 Bft) 97,83 %
04.09.2019 12:22 21,7 C 26,7 C 21,7 C 63 % 1016,2 hPa 0,0 l/m 2 min 0 min 765 W/m 19,3 km/h (3 Bft) 97,87 %
04.09.2019 12:24 21,8 C 25,6 C 21,1 C 62 % 1016,1 hPa 0,0 l/m 2 min 0 min 770 W/m 25,7 km/h (4 Bft) 97,87 %
04.09.2019 12:26 21,9 C 26,1 C 21,7 C 61 % 1016,0 hPa 0,0 l/m 2 min 0 min 770 W/m 22,5 km/h (4 Bft) 95,74 %
04.09.2019 12:28 21,9 C 26,7 C 21,7 C 61 % 1016,0 hPa 0,0 l/m 2 min 0 min 776 W/m 22,5 km/h (4 Bft) 97,87 %
04.09.2019 12:30 22,0 C 26,1 C 21,7 C 61 % 1016,0 hPa 0,0 l/m 2 min 0 min 765 W/m 12,9 km/h (3 Bft) 95,74 %
04.09.2019 12:32 22,1 C 26,7 C 21,7 C 61 % 1016,0 hPa 0,0 l/m 2 min 0 min 793 W/m 19,3 km/h (3 Bft) 97,83 %
04.09.2019 12:34 22,1 C 26,1 C 21,1 C 60 % 1016,0 hPa 0,0 l/m 2 min 0 min 843 W/m 22,5 km/h (4 Bft) 97,87 %
04.09.2019 12:36 22,2 C 25,6 C 21,1 C 60 % 1015,9 hPa 0,0 l/m 2 min 0 min 844 W/m 25,7 km/h (4 Bft) 97,87 %
04.09.2019 12:38 22,2 C 27,2 C 21,7 C 61 % 1015,9 hPa 0,0 l/m 2 min 0 min 849 W/m 12,9 km/h (3 Bft) 97,87 %
04.09.2019 12:40 22,3 C 26,7 C 22,2 C 61 % 1015,9 hPa 0,0 l/m 2 min 0 min 800 W/m 25,7 km/h (4 Bft) 97,87 %
04.09.2019 12:42 22,3 C 27,2 C 21,7 C 60 % 1015,8 hPa 0,0 l/m 2 min 0 min 795 W/m 19,3 km/h (3 Bft) 97,83 %
04.09.2019 12:44 22,4 C 27,8 C 22,2 C 60 % 1015,8 hPa 0,0 l/m 2 min 0 min 800 W/m 22,5 km/h (4 Bft) 97,87 %
04.09.2019 12:46 22,6 C 27,2 C 21,7 C 60 % 1015,7 hPa 0,0 l/m 2 min 0 min 797 W/m 19,3 km/h (3 Bft) 95,74 %
04.09.2019 12:48 22,6 C 27,8 C 22,2 C 60 % 1015,7 hPa 0,0 l/m 2 min 0 min 799 W/m 12,9 km/h (3 Bft) 97,87 %
04.09.2019 12:50 22,7 C 26,7 C 21,7 C 59 % 1015,7 hPa 0,0 l/m 2 min 0 min 804 W/m 25,7 km/h (4 Bft) 97,87 %
04.09.2019 12:52 22,7 C 26,7 C 21,7 C 59 % 1015,7 hPa 0,0 l/m 2 min 0 min 821 W/m 22,5 km/h (4 Bft) 97,87 %
04.09.2019 12:54 22,7 C 27,2 C 22,2 C 60 % 1015,6 hPa 0,0 l/m 2 min 0 min 773 W/m 12,9 km/h (3 Bft) 97,83 %
04.09.2019 12:56 22,7 C 26,7 C 21,7 C 59 % 1015,6 hPa 0,0 l/m 2 min 0 min 636 W/m 19,3 km/h (3 Bft) 97,87 %
04.09.2019 12:58 22,8 C 26,7 C 21,7 C 59 % 1015,5 hPa 0,0 l/m 2 min 0 min 903 W/m 22,5 km/h (4 Bft) 97,87 %
04.09.2019 13:00 22,8 C 26,7 C 21,7 C 60 % 1015,5 hPa 0,0 l/m 2 min 0 min 904 W/m 19,3 km/h (3 Bft) 97,87 %
04.09.2019 13:02 22,8 C 26,7 C 22,2 C 59 % 1015,4 hPa 0,0 l/m 2 min 0 min 687 W/m 29,0 km/h (5 Bft) 97,87 %
04.09.2019 13:04 22,9 C 26,7 C 22,2 C 59 % 1015,4 hPa 0,0 l/m 2 min 0 min 608 W/m 19,3 km/h (3 Bft) 97,87 %
04.09.2019 13:06 22,9 C 26,1 C 22,2 C 59 % 1015,4 hPa 0,0 l/m 2 min 0 min 895 W/m 22,5 km/h (4 Bft) 97,83 %
04.09.2019 13:08 22,9 C 25,6 C 22,2 C 59 % 1015,3 hPa 0,0 l/m 2 min 0 min 766 W/m 19,3 km/h (3 Bft) 97,87 %
04.09.2019 13:10 22,9 C 25,6 C 22,2 C 59 % 1015,2 hPa 0,0 l/m 2 min 0 min 590 W/m 19,3 km/h (3 Bft) 100,00 %
04.09.2019 13:12 22,8 C 24,4 C 22,2 C 59 % 1015,3 hPa 0,0 l/m 2 min 0 min 538 W/m 29,0 km/h (5 Bft) 100,00 %
04.09.2019 13:14 22,8 C 24,4 C 22,2 C 59 % 1015,2 hPa 0,0 l/m 2 min 0 min 523 W/m 19,3 km/h (3 Bft) 97,87 %
04.09.2019 13:16 22,8 C 25,0 C 22,2 C 59 % 1015,2 hPa 0,0 l/m 2 min 0 min 564 W/m 32,2 km/h (5 Bft) 100,00 %
04.09.2019 13:18 22,8 C 25,0 C 22,2 C 59 % 1015,2 hPa 0,0 l/m 2 min 0 min 715 W/m 19,3 km/h (3 Bft) 100,00 %
04.09.2019 13:20 22,8 C 26,7 C 22,8 C 59 % 1015,2 hPa 0,0 l/m 2 min 0 min 795 W/m 19,3 km/h (3 Bft) 100,00 %
04.09.2019 13:22 22,8 C 26,7 C 22,8 C 59 % 1015,1 hPa 0,0 l/m 2 min 0 min 864 W/m 25,7 km/h (4 Bft) 97,87 %
04.09.2019 13:24 22,8 C 27,8 C 22,8 C 60 % 1015,0 hPa 0,0 l/m 2 min 0 min 877 W/m 16,1 km/h (3 Bft) 97,87 %
04.09.2019 13:26 22,9 C 28,3 C 22,8 C 60 % 1015,1 hPa 0,0 l/m 2 min 0 min 863 W/m 16,1 km/h (3 Bft) 97,87 %
04.09.2019 13:28 23,0 C 28,9 C 23,3 C 60 % 1015,0 hPa 0,0 l/m 2 min 0 min 858 W/m 19,3 km/h (3 Bft) 97,87 %
04.09.2019 13:30 23,1 C 27,2 C 22,8 C 59 % 1015,0 hPa 0,0 l/m 2 min 0 min 789 W/m 22,5 km/h (4 Bft) 100,00 %
04.09.2019 13:32 23,2 C 27,8 C 23,3 C 59 % 1015,0 hPa 0,0 l/m 2 min 0 min 749 W/m 16,1 km/h (3 Bft) 100,00 %
04.09.2019 13:34 23,3 C 27,2 C 23,3 C 59 % 1015,0 hPa 0,0 l/m 2 min 0 min 838 W/m 25,7 km/h (4 Bft) 97,87 %
04.09.2019 13:36 23,3 C 27,2 C 23,3 C 59 % 1015,0 hPa 0,0 l/m 2 min 0 min 812 W/m 19,3 km/h (3 Bft) 95,74 %
04.09.2019 13:38 23,4 C 26,1 C 23,3 C 59 % 1014,9 hPa 0,0 l/m 2 min 0 min 812 W/m 12,9 km/h (3 Bft) 100,00 %
04.09.2019 13:40 23,4 C 25,0 C 22,8 C 58 % 1014,8 hPa 0,0 l/m 2 min 0 min 812 W/m 29,0 km/h (5 Bft) 97,87 %
04.09.2019 13:42 23,4 C 23,9 C 22,2 C 58 % 1014,8 hPa 0,0 l/m 2 min 0 min 392 W/m 19,3 km/h (3 Bft) 97,83 %
04.09.2019 13:44 23,4 C 25,6 C 22,8 C 58 % 1014,8 hPa 0,0 l/m 2 min 0 min 583 W/m 22,5 km/h (4 Bft) 97,87 %
04.09.2019 13:46 23,4 C 27,2 C 23,9 C 58 % 1014,8 hPa 0,0 l/m 2 min 0 min 877 W/m 16,1 km/h (3 Bft) 97,87 %
04.09.2019 13:48 23,5 C 27,8 C 25,6 C 58 % 1014,8 hPa 0,0 l/m 2 min 0 min 850 W/m 12,9 km/h (3 Bft) 97,87 %
04.09.2019 13:50 23,5 C 28,3 C 27,2 C 58 % 1014,7 hPa 0,0 l/m 2 min 0 min 836 W/m 9,7 km/h (2 Bft) 97,87 %
04.09.2019 13:52 23,6 C 28,3 C 28,3 C 59 % 1014,7 hPa 0,0 l/m 2 min 0 min 843 W/m 25,7 km/h (4 Bft) 97,83 %
04.09.2019 13:54 23,7 C 27,8 C 28,9 C 58 % 1014,6 hPa 0,0 l/m 2 min 0 min 890 W/m 29,0 km/h (5 Bft) 97,87 %
04.09.2019 13:56 23,7 C 27,2 C 28,3 C 57 % 1014,6 hPa 0,0 l/m 2 min 0 min 922 W/m 29,0 km/h (5 Bft) 97,87 %
04.09.2019 13:58 23,8 C 28,3 C 28,3 C 57 % 1014,7 hPa 0,0 l/m 2 min 0 min 949 W/m 16,1 km/h (3 Bft) 95,74 %
04.09.2019 14:00 23,8 C 27,8 C 27,8 C 57 % 1014,6 hPa 0,0 l/m 2 min 0 min 921 W/m 19,3 km/h (3 Bft) 95,74 %
04.09.2019 14:02 23,9 C 27,2 C 27,8 C 58 % 1014,6 hPa 0,0 l/m 2 min 0 min 936 W/m 22,5 km/h (4 Bft) 95,74 %
04.09.2019 14:04 23,9 C 26,7 C 25,6 C 57 % 1014,5 hPa 0,0 l/m 2 min 0 min 822 W/m 32,2 km/h (5 Bft) 95,74 %
04.09.2019 14:06 23,9 C 25,6 C 24,4 C 57 % 1014,5 hPa 0,0 l/m 2 min 0 min 510 W/m 19,3 km/h (3 Bft) 91,30 %
04.09.2019 14:08 23,9 C 26,7 C 24,4 C 58 % 1014,4 hPa 0,0 l/m 2 min 0 min 519 W/m 12,9 km/h (3 Bft) 95,74 %
04.09.2019 14:10 23,9 C 27,2 C 24,4 C 57 % 1014,4 hPa 0,0 l/m 2 min 0 min 519 W/m 19,3 km/h (3 Bft) 95,74 %
04.09.2019 14:12 23,9 C 28,9 C 25,6 C 58 % 1014,4 hPa 0,0 l/m 2 min 0 min 985 W/m 12,9 km/h (3 Bft) 91,49 %
04.09.2019 14:14 24,0 C 29,4 C 26,1 C 58 % 1014,4 hPa 0,0 l/m 2 min 0 min 714 W/m 22,5 km/h (4 Bft) 95,74 %
04.09.2019 14:16 24,1 C 29,4 C 25,6 C 57 % 1014,3 hPa 0,0 l/m 2 min 0 min 713 W/m 9,7 km/h (2 Bft) 95,65 %
04.09.2019 14:18 24,3 C 28,3 C 25,6 C 57 % 1014,4 hPa 0,0 l/m 2 min 0 min 712 W/m 12,9 km/h (3 Bft) 95,74 %
04.09.2019 14:20 24,3 C 29,4 C 25,6 C 57 % 1014,3 hPa 0,0 l/m 2 min 0 min 711 W/m 16,1 km/h (3 Bft) 95,74 %
04.09.2019 14:22 24,4 C 30,6 C 25,6 C 57 % 1014,3 hPa 0,0 l/m 2 min 0 min 710 W/m 19,3 km/h (3 Bft) 93,62 %
04.09.2019 14:24 24,6 C 30,6 C 25,6 C 58 % 1014,3 hPa 0,0 l/m 2 min 0 min 924 W/m 6,4 km/h (2 Bft) 95,74 %
04.09.2019 14:26 24,7 C 28,3 C 25,6 C 56 % 1014,2 hPa 0,0 l/m 2 min 0 min 497 W/m 12,9 km/h (3 Bft) 95,74 %
04.09.2019 14:28 24,7 C 27,2 C 24,4 C 55 % 1014,3 hPa 0,0 l/m 2 min 0 min 380 W/m 22,5 km/h (4 Bft) 95,65 %
04.09.2019 14:30 24,8 C 28,3 C 25,0 C 56 % 1014,1 hPa 0,0 l/m 2 min 0 min 380 W/m 35,4 km/h (5 Bft) 91,49 %
04.09.2019 14:32 24,8 C 28,9 C 24,4 C 55 % 1014,2 hPa 0,0 l/m 2 min 0 min 653 W/m 25,7 km/h (4 Bft) 95,74 %
04.09.2019 14:34 24,8 C 27,8 C 25,0 C 55 % 1014,1 hPa 0,0 l/m 2 min 0 min 724 W/m 16,1 km/h (3 Bft) 95,74 %
04.09.2019 14:36 24,8 C 26,7 C 24,4 C 55 % 1014,2 hPa 0,0 l/m 2 min 0 min 546 W/m 22,5 km/h (4 Bft) 91,49 %
04.09.2019 14:38 24,8 C 26,1 C 24,4 C 55 % 1014,0 hPa 0,0 l/m 2 min 0 min 565 W/m 22,5 km/h (4 Bft) 93,62 %
04.09.2019 14:40 24,8 C 26,1 C 24,4 C 55 % 1014,0 hPa 0,0 l/m 2 min 0 min 610 W/m 32,2 km/h (5 Bft) 95,65 %
04.09.2019 14:42 24,7 C 26,1 C 24,4 C 55 % 1014,0 hPa 0,0 l/m 2 min 0 min 682 W/m 32,2 km/h (5 Bft) 95,74 %
04.09.2019 14:44 24,6 C 25,6 C 24,4 C 54 % 1014,0 hPa 0,0 l/m 2 min 0 min 500 W/m 29,0 km/h (5 Bft) 97,87 %
04.09.2019 14:46 24,6 C 25,0 C 24,4 C 55 % 1013,9 hPa 0,0 l/m 2 min 0 min 358 W/m 19,3 km/h (3 Bft) 100,00 %
04.09.2019 14:48 24,4 C 25,0 C 23,9 C 55 % 1013,9 hPa 0,0 l/m 2 min 0 min 345 W/m 16,1 km/h (3 Bft) 100,00 %
04.09.2019 14:50 24,4 C 25,0 C 24,4 C 56 % 1013,9 hPa 0,0 l/m 2 min 0 min 340 W/m 16,1 km/h (3 Bft) 100,00 %
04.09.2019 14:52 24,3 C 25,0 C 23,9 C 56 % 1013,9 hPa 0,0 l/m 0 min 0 min 323 W/m 19,3 km/h (3 Bft) 100,00 %
04.09.2019 14:54 24,2 C 24,4 C 23,9 C 56 % 1013,9 hPa 0,0 l/m 0 min 0 min 285 W/m 19,3 km/h (3 Bft) 100,00 %
04.09.2019 14:56 24,2 C 24,4 C 23,3 C 56 % 1013,8 hPa 0,0 l/m 0 min 0 min 271 W/m 19,3 km/h (3 Bft) 100,00 %
04.09.2019 14:58 24,1 C 24,4 C 23,9 C 57 % 1013,9 hPa 0,0 l/m 0 min 0 min 296 W/m 9,7 km/h (2 Bft) 97,87 %
04.09.2019 15:00 24,1 C 25,0 C 23,9 C 57 % 1013,7 hPa 0,0 l/m 2 min 0 min 333 W/m 16,1 km/h (3 Bft) 97,87 %
04.09.2019 15:02 24,1 C 24,4 C 23,9 C 56 % 1013,8 hPa 0,0 l/m 2 min 0 min 331 W/m 16,1 km/h (3 Bft) 100,00 %
04.09.2019 15:04 24,0 C 24,4 C 23,9 C 57 % 1013,9 hPa 0,0 l/m 0 min 0 min 319 W/m 9,7 km/h (2 Bft) 100,00 %
04.09.2019 15:06 23,9 C 23,9 C 23,3 C 56 % 1013,7 hPa 0,0 l/m 0 min 0 min 290 W/m 22,5 km/h (4 Bft) 100,00 %
04.09.2019 15:08 23,9 C 23,9 C 23,3 C 57 % 1013,7 hPa 0,0 l/m 0 min 0 min 277 W/m 19,3 km/h (3 Bft) 100,00 %
04.09.2019 15:10 23,8 C 23,9 C 23,3 C 57 % 1013,7 hPa 0,0 l/m 0 min 0 min 287 W/m 19,3 km/h (3 Bft) 100,00 %
04.09.2019 15:12 23,8 C 23,9 C 23,3 C 57 % 1013,7 hPa 0,0 l/m 0 min 0 min 290 W/m 12,9 km/h (3 Bft) 100,00 %
04.09.2019 15:14 23,7 C 23,9 C 23,3 C 57 % 1013,8 hPa 0,0 l/m 0 min 0 min 311 W/m 22,5 km/h (4 Bft) 100,00 %
04.09.2019 15:16 23,7 C 23,9 C 23,3 C 57 % 1013,8 hPa 0,0 l/m 2 min 0 min 332 W/m 25,7 km/h (4 Bft) 100,00 %
04.09.2019 15:18 23,6 C 23,9 C 23,3 C 57 % 1013,7 hPa 0,0 l/m 0 min 0 min 296 W/m 16,1 km/h (3 Bft) 100,00 %
04.09.2019 15:20 23,6 C 23,9 C 22,8 C 57 % 1013,8 hPa 0,0 l/m 0 min 0 min 264 W/m 22,5 km/h (4 Bft) 100,00 %
04.09.2019 15:22 23,6 C 23,3 C 22,8 C 57 % 1013,7 hPa 0,0 l/m 0 min 0 min 272 W/m 25,7 km/h (4 Bft) 100,00 %
04.09.2019 15:24 23,5 C 23,3 C 22,8 C 57 % 1013,7 hPa 0,0 l/m 0 min 0 min 282 W/m 35,4 km/h (5 Bft) 100,00 %
04.09.2019 15:26 23,4 C 23,3 C 22,8 C 57 % 1013,7 hPa 0,0 l/m 0 min 0 min 269 W/m 29,0 km/h (5 Bft) 97,83 %
04.09.2019 15:28 23,4 C 23,3 C 22,8 C 58 % 1013,7 hPa 0,0 l/m 0 min 0 min 269 W/m 19,3 km/h (3 Bft) 97,87 %
04.09.2019 15:30 23,4 C 23,3 C 22,8 C 58 % 1013,7 hPa 0,0 l/m 0 min 0 min 262 W/m 12,9 km/h (3 Bft) 97,87 %
04.09.2019 15:32 23,4 C 23,9 C 23,3 C 59 % 1013,6 hPa 0,0 l/m 0 min 0 min 258 W/m 19,3 km/h (3 Bft) 97,87 %
04.09.2019 15:34 23,4 C 24,4 C 23,3 C 59 % 1013,6 hPa 0,0 l/m 0 min 0 min 270 W/m 12,9 km/h (3 Bft) 97,87 %
04.09.2019 15:36 23,4 C 23,9 C 23,3 C 59 % 1013,6 hPa 0,0 l/m 0 min 0 min 281 W/m 16,1 km/h (3 Bft) 97,87 %
04.09.2019 15:38 23,4 C 23,9 C 23,3 C 58 % 1013,6 hPa 0,0 l/m 0 min 0 min 275 W/m 22,5 km/h (4 Bft) 97,83 %
04.09.2019 15:40 23,4 C 23,9 C 23,3 C 58 % 1013,6 hPa 0,0 l/m 0 min 0 min 266 W/m 16,1 km/h (3 Bft) 97,87 %
04.09.2019 15:42 23,4 C 23,9 C 23,3 C 58 % 1013,5 hPa 0,0 l/m 0 min 0 min 271 W/m 22,5 km/h (4 Bft) 97,87 %
04.09.2019 15:44 23,4 C 24,4 C 23,3 C 59 % 1013,5 hPa 0,0 l/m 0 min 0 min 280 W/m 12,9 km/h (3 Bft) 97,87 %
04.09.2019 15:46 23,5 C 24,4 C 23,3 C 59 % 1013,5 hPa 0,0 l/m 0 min 0 min 289 W/m 12,9 km/h (3 Bft) 97,87 %
04.09.2019 15:48 23,6 C 24,4 C 23,9 C 59 % 1013,5 hPa 0,0 l/m 0 min 0 min 285 W/m 12,9 km/h (3 Bft) 97,87 %
04.09.2019 15:50 23,6 C 24,4 C 23,3 C 59 % 1013,5 hPa 0,0 l/m 0 min 0 min 282 W/m 16,1 km/h (3 Bft) 97,83 %
04.09.2019 15:52 23,6 C 24,4 C 23,3 C 58 % 1013,6 hPa 0,0 l/m 0 min 0 min 289 W/m 22,5 km/h (4 Bft) 97,87 %
04.09.2019 15:54 23,6 C 23,9 C 23,3 C 58 % 1013,6 hPa 0,0 l/m 0 min 0 min 284 W/m 19,3 km/h (3 Bft) 97,87 %
04.09.2019 15:56 23,6 C 23,9 C 23,3 C 58 % 1013,7 hPa 0,0 l/m 0 min 0 min 283 W/m 19,3 km/h (3 Bft) 95,74 %
04.09.2019 15:58 23,6 C 23,9 C 23,3 C 58 % 1013,6 hPa 0,0 l/m 0 min 0 min 271 W/m 9,7 km/h (2 Bft) 95,74 %
04.09.2019 16:00 23,6 C 23,9 C 23,3 C 58 % 1013,6 hPa 0,0 l/m 0 min 0 min 253 W/m 19,3 km/h (3 Bft) 97,87 %
04.09.2019 16:02 23,6 C 23,3 C 23,3 C 57 % 1013,7 hPa 0,0 l/m 0 min 0 min 222 W/m 29,0 km/h (5 Bft) 100,00 %
04.09.2019 16:04 23,5 C 23,3 C 22,8 C 58 % 1013,6 hPa 0,0 l/m 0 min 0 min 188 W/m 16,1 km/h (3 Bft) 97,87 %
04.09.2019 16:06 23,5 C 23,3 C 22,8 C 58 % 1013,6 hPa 0,0 l/m 0 min 0 min 170 W/m 19,3 km/h (3 Bft) 95,74 %
04.09.2019 16:08 23,4 C 23,3 C 22,8 C 58 % 1013,5 hPa 0,0 l/m 0 min 0 min 167 W/m 22,5 km/h (4 Bft) 97,87 %
04.09.2019 16:10 23,4 C 22,8 C 22,8 C 58 % 1013,6 hPa 0,0 l/m 0 min 0 min 154 W/m 19,3 km/h (3 Bft) 97,87 %
04.09.2019 16:12 23,4 C 22,8 C 22,8 C 58 % 1013,5 hPa 0,0 l/m 0 min 0 min 154 W/m 19,3 km/h (3 Bft) 97,87 %
04.09.2019 16:14 23,4 C 22,8 C 22,8 C 58 % 1013,4 hPa 0,0 l/m 0 min 0 min 159 W/m 19,3 km/h (3 Bft) 95,65 %
04.09.2019 16:16 23,3 C 22,8 C 22,8 C 58 % 1013,4 hPa 0,0 l/m 0 min 0 min 138 W/m 12,9 km/h (3 Bft) 97,87 %
04.09.2019 16:18 23,3 C 22,8 C 22,8 C 58 % 1013,6 hPa 0,0 l/m 0 min 0 min 109 W/m 16,1 km/h (3 Bft) 97,87 %
04.09.2019 16:20 23,3 C 22,8 C 22,2 C 58 % 1013,5 hPa 0,0 l/m 0 min 0 min 85 W/m 16,1 km/h (3 Bft) 100,00 %
04.09.2019 16:22 23,2 C 22,2 C 22,2 C 59 % 1013,5 hPa 0,0 l/m 0 min 0 min 77 W/m 9,7 km/h (2 Bft) 100,00 %
04.09.2019 16:24 23,2 C 22,2 C 22,2 C 59 % 1013,5 hPa 0,0 l/m 0 min 0 min 84 W/m 9,7 km/h (2 Bft) 100,00 %
04.09.2019 16:26 23,1 C 22,2 C 22,2 C 60 % 1013,5 hPa 0,0 l/m 0 min 0 min 115 W/m 16,1 km/h (3 Bft) 100,00 %
04.09.2019 16:28 23,1 C 22,8 C 21,1 C 60 % 1013,5 hPa 0,0 l/m 0 min 0 min 165 W/m 6,4 km/h (2 Bft) 97,87 %
04.09.2019 16:30 23,1 C 21,1 C 20,6 C 61 % 1013,7 hPa 0,0 l/m 0 min 2 min 173 W/m 9,7 km/h (2 Bft) 100,00 %
04.09.2019 16:32 23,0 C 21,1 C 21,1 C 63 % 1013,6 hPa 0,0 l/m 0 min 2 min 150 W/m 16,1 km/h (3 Bft) 97,87 %
04.09.2019 16:34 22,9 C 21,1 C 21,1 C 63 % 1013,6 hPa 0,0 l/m 0 min 2 min 131 W/m 25,7 km/h (4 Bft) 97,87 %
04.09.2019 16:36 22,7 C 21,1 C 21,1 C 62 % 1013,6 hPa 0,0 l/m 0 min 0 min 117 W/m 22,5 km/h (4 Bft) 97,83 %
04.09.2019 16:38 22,6 C 21,1 C 21,1 C 62 % 1013,6 hPa 0,0 l/m 0 min 0 min 104 W/m 12,9 km/h (3 Bft) 95,74 %
04.09.2019 16:40 22,5 C 19,4 C 19,4 C 62 % 1013,7 hPa 0,0 l/m 0 min 2 min 92 W/m 22,5 km/h (4 Bft) 97,87 %
04.09.2019 16:42 22,4 C 19,4 C 19,4 C 64 % 1013,7 hPa 0,0 l/m 0 min 2 min 93 W/m 19,3 km/h (3 Bft) 97,87 %
04.09.2019 16:44 22,3 C 20,0 C 20,0 C 64 % 1013,7 hPa 0,0 l/m 0 min 0 min 95 W/m 16,1 km/h (3 Bft) 97,87 %
04.09.2019 16:46 22,2 C 20,6 C 20,6 C 65 % 1013,6 hPa 0,0 l/m 0 min 0 min 98 W/m 9,7 km/h (2 Bft) 95,74 %
04.09.2019 16:48 22,1 C 21,1 C 20,6 C 64 % 1013,7 hPa 0,0 l/m 0 min 0 min 118 W/m 12,9 km/h (3 Bft) 95,65 %
04.09.2019 16:50 22,1 C 21,1 C 21,1 C 64 % 1013,7 hPa 0,0 l/m 0 min 0 min 129 W/m 6,4 km/h (2 Bft) 95,74 %
04.09.2019 16:52 22,1 C 21,1 C 21,1 C 64 % 1013,7 hPa 0,0 l/m 0 min 0 min 126 W/m 6,4 km/h (2 Bft) 95,74 %
04.09.2019 16:54 22,0 C 21,7 C 21,1 C 64 % 1013,7 hPa 0,0 l/m 0 min 0 min 116 W/m 9,7 km/h (2 Bft) 97,87 %
04.09.2019 16:56 22,0 C 21,7 C 21,1 C 64 % 1013,7 hPa 0,0 l/m 0 min 0 min 128 W/m 12,9 km/h (3 Bft) 95,74 %
04.09.2019 16:58 21,9 C 21,7 C 21,1 C 63 % 1013,7 hPa 0,0 l/m 0 min 0 min 143 W/m 16,1 km/h (3 Bft) 95,74 %
04.09.2019 17:00 21,9 C 21,7 C 21,7 C 63 % 1013,8 hPa 0,0 l/m 0 min 0 min 154 W/m 16,1 km/h (3 Bft) 93,48 %
04.09.2019 17:02 21,9 C 21,7 C 21,7 C 63 % 1013,8 hPa 0,0 l/m 0 min 0 min 133 W/m 9,7 km/h (2 Bft) 97,87 %
04.09.2019 17:04 21,9 C 21,7 C 21,7 C 63 % 1013,7 hPa 0,0 l/m 0 min 0 min 104 W/m 9,7 km/h (2 Bft) 97,87 %
04.09.2019 17:06 21,9 C 21,7 C 21,7 C 63 % 1013,8 hPa 0,0 l/m 0 min 0 min 91 W/m 9,7 km/h (2 Bft) 95,74 %
04.09.2019 17:08 21,9 C 21,7 C 21,1 C 63 % 1013,9 hPa 0,0 l/m 0 min 0 min 85 W/m 12,9 km/h (3 Bft) 95,74 %
04.09.2019 17:10 21,9 C 21,1 C 21,1 C 62 % 1013,7 hPa 0,0 l/m 0 min 0 min 74 W/m 22,5 km/h (4 Bft) 95,74 %
04.09.2019 17:12 21,9 C 21,1 C 21,1 C 61 % 1013,9 hPa 0,0 l/m 0 min 0 min 76 W/m 16,1 km/h (3 Bft) 95,65 %
04.09.2019 17:14 21,9 C 21,1 C 21,1 C 61 % 1013,9 hPa 0,0 l/m 0 min 0 min 77 W/m 9,7 km/h (2 Bft) 95,74 %
04.09.2019 17:16 21,9 C 21,1 C 21,1 C 61 % 1013,9 hPa 0,0 l/m 0 min 0 min 70 W/m 22,5 km/h (4 Bft) 95,74 %
04.09.2019 17:18 21,8 C 21,1 C 21,1 C 62 % 1013,9 hPa 0,0 l/m 0 min 0 min 52 W/m 9,7 km/h (2 Bft) 97,87 %
04.09.2019 17:20 21,8 C 21,1 C 20,6 C 61 % 1014,0 hPa 0,0 l/m 0 min 0 min 39 W/m 12,9 km/h (3 Bft) 95,74 %
04.09.2019 17:22 21,8 C 20,6 C 20,6 C 62 % 1014,1 hPa 0,0 l/m 0 min 0 min 36 W/m 12,9 km/h (3 Bft) 95,74 %
04.09.2019 17:24 21,7 C 20,6 C 20,6 C 62 % 1014,1 hPa 0,0 l/m 0 min 0 min 34 W/m 9,7 km/h (2 Bft) 97,83 %
04.09.2019 17:26 21,7 C 20,6 C 20,6 C 62 % 1014,2 hPa 0,0 l/m 0 min 0 min 37 W/m 12,9 km/h (3 Bft) 97,87 %
04.09.2019 17:28 21,7 C 20,6 C 20,6 C 62 % 1014,2 hPa 0,0 l/m 0 min 0 min 43 W/m 9,7 km/h (2 Bft) 97,87 %
04.09.2019 17:30 21,6 C 20,0 C 20,6 C 62 % 1014,2 hPa 0,0 l/m 0 min 0 min 37 W/m 19,3 km/h (3 Bft) 97,87 %
04.09.2019 17:32 21,5 C 20,0 C 20,0 C 62 % 1014,2 hPa 0,0 l/m 0 min 0 min 34 W/m 16,1 km/h (3 Bft) 97,87 %
04.09.2019 17:34 21,4 C 20,0 C 20,0 C 63 % 1014,2 hPa 0,0 l/m 0 min 0 min 30 W/m 16,1 km/h (3 Bft) 95,65 %
04.09.2019 17:36 21,3 C 20,0 C 20,0 C 63 % 1014,3 hPa 0,0 l/m 0 min 0 min 26 W/m 19,3 km/h (3 Bft) 97,87 %
04.09.2019 17:38 21,3 C 20,0 C 20,0 C 63 % 1014,3 hPa 0,0 l/m 0 min 0 min 26 W/m 9,7 km/h (2 Bft) 97,37 %
04.09.2019 17:40 21,2 C 20,0 C 20,0 C 64 % 1014,3 hPa 0,0 l/m 0 min 0 min 28 W/m 9,7 km/h (2 Bft) 97,87 %
04.09.2019 17:42 21,1 C 19,4 C 19,4 C 66 % 1014,4 hPa 0,0 l/m 0 min 0 min 28 W/m 25,7 km/h (4 Bft) 97,87 %
04.09.2019 17:44 21,0 C 17,2 C 18,3 C 69 % 1014,5 hPa 0,0 l/m 0 min 2 min 26 W/m 25,7 km/h (4 Bft) 95,74 %
04.09.2019 17:46 20,8 C 16,1 C 16,7 C 72 % 1014,6 hPa 0,0 l/m 0 min 2 min 25 W/m 12,9 km/h (3 Bft) 97,87 %
04.09.2019 17:48 20,6 C 15,6 C 16,1 C 76 % 1014,6 hPa 0,2 l/m 0 min 2 min 28 W/m 12,9 km/h (3 Bft) 97,87 %
04.09.2019 17:50 20,4 C 15,6 C 15,6 C 77 % 1014,6 hPa 0,2 l/m 0 min 2 min 34 W/m 9,7 km/h (2 Bft) 97,83 %
04.09.2019 17:52 20,1 C 15,6 C 15,6 C 78 % 1014,6 hPa 0,0 l/m 0 min 2 min 41 W/m 9,7 km/h (2 Bft) 97,87 %
04.09.2019 17:54 19,8 C 15,6 C 15,6 C 80 % 1014,5 hPa 0,0 l/m 0 min 2 min 44 W/m 9,7 km/h (2 Bft) 95,74 %
04.09.2019 17:56 19,6 C 15,0 C 15,6 C 80 % 1014,5 hPa 0,0 l/m 0 min 2 min 42 W/m 9,7 km/h (2 Bft) 97,87 %
04.09.2019 17:58 19,4 C 15,0 C 15,6 C 81 % 1014,6 hPa 0,0 l/m 0 min 2 min 40 W/m 16,1 km/h (3 Bft) 97,87 %
04.09.2019 18:00 19,2 C 15,6 C 15,6 C 82 % 1014,6 hPa 0,0 l/m 0 min 0 min 42 W/m 6,4 km/h (2 Bft) 95,65 %
04.09.2019 18:02 19,0 C 15,6 C 15,6 C 83 % 1014,6 hPa 0,0 l/m 0 min 2 min 41 W/m 6,4 km/h (2 Bft) 95,74 %
04.09.2019 18:04 18,9 C 15,0 C 15,6 C 83 % 1014,6 hPa 0,0 l/m 0 min 2 min 36 W/m 6,4 km/h (2 Bft) 100,00 %
04.09.2019 18:08 18,6 C 15,6 C 15,6 C 84 % 1014,5 hPa 0,0 l/m 0 min 4 min 29 W/m 9,7 km/h (2 Bft) 100,00 %
04.09.2019 18:10 18,4 C 15,6 C 15,6 C 85 % 1014,6 hPa 0,0 l/m 0 min 2 min 25 W/m 3,2 km/h (1 Bft) 97,87 %
04.09.2019 18:12 18,3 C 15,0 C 15,6 C 85 % 1014,5 hPa 0,0 l/m 0 min 2 min 25 W/m 9,7 km/h (2 Bft) 100,00 %
04.09.2019 18:14 18,2 C 15,0 C 15,6 C 85 % 1014,6 hPa 0,2 l/m 0 min 2 min 27 W/m 6,4 km/h (2 Bft) 100,00 %
04.09.2019 18:16 18,2 C 15,0 C 15,6 C 86 % 1014,6 hPa 0,0 l/m 0 min 2 min 31 W/m 9,7 km/h (2 Bft) 100,00 %
04.09.2019 18:18 18,1 C 15,0 C 15,6 C 86 % 1014,5 hPa 0,0 l/m 0 min 2 min 30 W/m 6,4 km/h (2 Bft) 100,00 %
04.09.2019 18:20 17,9 C 15,0 C 15,0 C 87 % 1014,5 hPa 0,0 l/m 0 min 2 min 24 W/m 3,2 km/h (1 Bft) 97,87 %
04.09.2019 18:22 17,9 C 15,0 C 15,0 C 87 % 1014,5 hPa 0,0 l/m 0 min 2 min 22 W/m 6,4 km/h (2 Bft) 100,00 %
04.09.2019 18:24 17,8 C 15,0 C 15,0 C 88 % 1014,5 hPa 0,2 l/m 0 min 2 min 24 W/m 0,0 km/h (0 Bft) 100,00 %
04.09.2019 18:26 17,7 C 15,0 C 15,0 C 88 % 1014,5 hPa 0,0 l/m 0 min 2 min 24 W/m 3,2 km/h (1 Bft) 100,00 %
04.09.2019 18:28 17,7 C 15,0 C 15,0 C 88 % 1014,5 hPa 0,0 l/m 0 min 2 min 25 W/m 3,2 km/h (1 Bft) 100,00 %
04.09.2019 18:30 17,6 C 15,0 C 15,0 C 88 % 1014,6 hPa 0,0 l/m 0 min 2 min 29 W/m 0,0 km/h (0 Bft) 100,00 %
04.09.2019 18:32 17,5 C 15,0 C 15,0 C 88 % 1014,6 hPa 0,0 l/m 0 min 2 min 31 W/m 3,2 km/h (1 Bft) 100,00 %
04.09.2019 18:34 17,4 C 15,0 C 15,0 C 89 % 1014,7 hPa 0,0 l/m 0 min 2 min 31 W/m 0,0 km/h (0 Bft) 100,00 %
04.09.2019 18:36 17,4 C 15,0 C 15,0 C 89 % 1014,7 hPa 0,0 l/m 0 min 2 min 29 W/m 3,2 km/h (1 Bft) 100,00 %
04.09.2019 18:38 17,4 C 15,0 C 15,0 C 89 % 1014,7 hPa 0,0 l/m 0 min 2 min 27 W/m 3,2 km/h (1 Bft) 100,00 %
04.09.2019 18:40 17,3 C 15,0 C 15,0 C 90 % 1014,5 hPa 0,2 l/m 0 min 2 min 24 W/m 6,4 km/h (2 Bft) 97,87 %
04.09.2019 18:42 17,3 C 15,0 C 15,0 C 90 % 1014,4 hPa 0,0 l/m 0 min 2 min 23 W/m 3,2 km/h (1 Bft) 100,00 %
04.09.2019 18:44 17,2 C 15,0 C 15,0 C 90 % 1014,4 hPa 0,0 l/m 0 min 2 min 25 W/m 3,2 km/h (1 Bft) 100,00 %
04.09.2019 18:46 17,2 C 15,0 C 15,0 C 90 % 1014,4 hPa 0,0 l/m 0 min 2 min 28 W/m 3,2 km/h (1 Bft) 100,00 %
04.09.2019 18:48 17,2 C 15,0 C 15,0 C 90 % 1014,5 hPa 0,0 l/m 0 min 2 min 28 W/m 3,2 km/h (1 Bft) 100,00 %
04.09.2019 18:50 17,1 C 15,0 C 15,0 C 90 % 1014,6 hPa 0,0 l/m 0 min 0 min 27 W/m 6,4 km/h (2 Bft) 97,87 %
04.09.2019 18:52 17,1 C 15,0 C 15,0 C 90 % 1014,6 hPa 0,0 l/m 0 min 0 min 25 W/m 3,2 km/h (1 Bft) 97,87 %
04.09.2019 18:54 17,1 C 15,0 C 15,0 C 90 % 1014,6 hPa 0,0 l/m 0 min 0 min 23 W/m 6,4 km/h (2 Bft) 97,87 %
04.09.2019 18:56 17,0 C 15,0 C 15,0 C 90 % 1014,6 hPa 0,0 l/m 0 min 0 min 21 W/m 12,9 km/h (3 Bft) 100,00 %
04.09.2019 18:58 16,9 C 15,0 C 15,0 C 90 % 1014,5 hPa 0,0 l/m 0 min 0 min 18 W/m 6,4 km/h (2 Bft) 97,87 %
04.09.2019 19:00 16,9 C 15,0 C 15,0 C 90 % 1014,5 hPa 0,0 l/m 0 min 2 min 15 W/m 9,7 km/h (2 Bft) 97,87 %
04.09.2019 19:02 16,9 C 15,0 C 15,0 C 90 % 1014,5 hPa 0,0 l/m 0 min 2 min 13 W/m 6,4 km/h (2 Bft) 95,74 %
04.09.2019 19:04 16,9 C 15,0 C 15,0 C 91 % 1014,7 hPa 0,0 l/m 0 min 2 min 9 W/m 3,2 km/h (1 Bft) 97,87 %
04.09.2019 19:06 16,8 C 14,4 C 15,0 C 91 % 1014,9 hPa 0,0 l/m 0 min 2 min 7 W/m 3,2 km/h (1 Bft) 97,87 %
04.09.2019 19:08 16,8 C 14,4 C 15,0 C 91 % 1014,8 hPa 0,0 l/m 0 min 2 min 7 W/m 16,1 km/h (3 Bft) 97,83 %
04.09.2019 19:10 16,8 C 14,4 C 15,0 C 91 % 1014,8 hPa 0,0 l/m 0 min 2 min 7 W/m 3,2 km/h (1 Bft) 97,87 %
04.09.2019 19:12 16,7 C 14,4 C 15,0 C 91 % 1014,7 hPa 0,2 l/m 0 min 2 min 9 W/m 6,4 km/h (2 Bft) 95,74 %
04.09.2019 19:14 16,7 C 14,4 C 14,4 C 91 % 1014,6 hPa 0,0 l/m 0 min 2 min 9 W/m 6,4 km/h (2 Bft) 97,87 %
04.09.2019 19:16 16,7 C 14,4 C 15,0 C 91 % 1014,6 hPa 0,0 l/m 0 min 2 min 12 W/m 9,7 km/h (2 Bft) 95,74 %
04.09.2019 19:18 16,7 C 14,4 C 15,0 C 91 % 1014,6 hPa 0,0 l/m 0 min 2 min 12 W/m 6,4 km/h (2 Bft) 95,74 %
04.09.2019 19:20 16,6 C 14,4 C 15,0 C 91 % 1014,7 hPa 0,0 l/m 0 min 2 min 12 W/m 12,9 km/h (3 Bft) 95,65 %
04.09.2019 19:22 16,6 C 14,4 C 14,4 C 91 % 1014,6 hPa 0,0 l/m 0 min 0 min 14 W/m 12,9 km/h (3 Bft) 97,87 %
04.09.2019 19:24 16,6 C 14,4 C 14,4 C 92 % 1014,7 hPa 0,0 l/m 0 min 2 min 12 W/m 22,5 km/h (4 Bft) 97,87 %
04.09.2019 19:26 16,5 C 14,4 C 14,4 C 92 % 1014,7 hPa 0,0 l/m 0 min 0 min 12 W/m 6,4 km/h (2 Bft) 95,74 %
04.09.2019 19:28 16,4 C 14,4 C 14,4 C 92 % 1014,6 hPa 0,0 l/m 0 min 2 min 12 W/m 16,1 km/h (3 Bft) 93,62 %
04.09.2019 19:30 16,4 C 14,4 C 14,4 C 92 % 1014,6 hPa 0,0 l/m 0 min 0 min 9 W/m 6,4 km/h (2 Bft) 95,65 %
04.09.2019 19:32 16,4 C 14,4 C 15,0 C 92 % 1014,7 hPa 0,0 l/m 0 min 0 min 10 W/m 9,7 km/h (2 Bft) 95,74 %
04.09.2019 19:34 16,4 C 15,0 C 15,0 C 92 % 1014,6 hPa 0,0 l/m 0 min 0 min 12 W/m 3,2 km/h (1 Bft) 95,74 %
04.09.2019 19:36 16,4 C 15,0 C 15,0 C 92 % 1014,7 hPa 0,0 l/m 0 min 0 min 12 W/m 22,5 km/h (4 Bft) 93,62 %
04.09.2019 19:38 16,4 C 15,0 C 15,0 C 92 % 1014,7 hPa 0,0 l/m 0 min 0 min 19 W/m 3,2 km/h (1 Bft) 95,74 %
04.09.2019 19:40 16,3 C 15,0 C 15,0 C 92 % 1014,6 hPa 0,0 l/m 0 min 0 min 30 W/m 6,4 km/h (2 Bft) 95,74 %
04.09.2019 19:42 16,3 C 15,0 C 15,0 C 92 % 1014,6 hPa 0,0 l/m 2 min 0 min 44 W/m 6,4 km/h (2 Bft) 95,65 %
04.09.2019 19:44 16,3 C 15,0 C 15,0 C 92 % 1014,6 hPa 0,0 l/m 2 min 0 min 55 W/m 16,1 km/h (3 Bft) 95,74 %
04.09.2019 19:46 16,3 C 14,4 C 14,4 C 92 % 1014,5 hPa 0,0 l/m 2 min 2 min 48 W/m 19,3 km/h (3 Bft) 91,49 %
04.09.2019 19:48 16,3 C 14,4 C 14,4 C 92 % 1014,5 hPa 0,0 l/m 2 min 2 min 40 W/m 29,0 km/h (5 Bft) 95,74 %
04.09.2019 19:50 16,3 C 14,4 C 14,4 C 92 % 1014,4 hPa 0,0 l/m 2 min 2 min 37 W/m 19,3 km/h (3 Bft) 97,87 %
04.09.2019 19:52 16,2 C 14,4 C 14,4 C 92 % 1014,5 hPa 0,0 l/m 2 min 2 min 33 W/m 9,7 km/h (2 Bft) 93,62 %
04.09.2019 19:54 16,2 C 14,4 C 14,4 C 92 % 1014,5 hPa 0,0 l/m 2 min 2 min 31 W/m 12,9 km/h (3 Bft) 93,48 %
04.09.2019 19:56 16,2 C 14,4 C 14,4 C 92 % 1014,6 hPa 0,0 l/m 2 min 0 min 30 W/m 9,7 km/h (2 Bft) 97,87 %
04.09.2019 19:58 16,2 C 14,4 C 14,4 C 93 % 1014,6 hPa 0,0 l/m 2 min 0 min 27 W/m 16,1 km/h (3 Bft) 95,74 %
04.09.2019 20:00 16,1 C 14,4 C 14,4 C 93 % 1014,5 hPa 0,0 l/m 2 min 0 min 22 W/m 19,3 km/h (3 Bft) 97,87 %
04.09.2019 20:02 16,1 C 14,4 C 14,4 C 93 % 1014,5 hPa 0,0 l/m 2 min 0 min 22 W/m 9,7 km/h (2 Bft) 93,62 %
04.09.2019 20:04 16,1 C 14,4 C 14,4 C 93 % 1014,4 hPa 0,0 l/m 0 min 0 min 13 W/m 9,7 km/h (2 Bft) 95,74 %
04.09.2019 20:06 16,1 C 14,4 C 14,4 C 93 % 1014,4 hPa 0,0 l/m 0 min 0 min 8 W/m 3,2 km/h (1 Bft) 95,65 %
04.09.2019 20:08 16,1 C 14,4 C 14,4 C 93 % 1014,3 hPa 0,0 l/m 0 min 0 min 19 W/m 9,7 km/h (2 Bft) 93,62 %
04.09.2019 20:10 16,1 C 14,4 C 14,4 C 93 % 1014,4 hPa 0,0 l/m 0 min 0 min 17 W/m 9,7 km/h (2 Bft) 95,74 %
04.09.2019 20:12 16,1 C 14,4 C 14,4 C 93 % 1014,5 hPa 0,0 l/m 0 min 0 min 14 W/m 9,7 km/h (2 Bft) 93,62 %
04.09.2019 20:14 16,0 C 14,4 C 14,4 C 93 % 1014,5 hPa 0,0 l/m 0 min 0 min 12 W/m 9,7 km/h (2 Bft) 95,74 %
04.09.2019 20:16 16,0 C 14,4 C 14,4 C 93 % 1014,5 hPa 0,0 l/m 0 min 0 min 11 W/m 19,3 km/h (3 Bft) 97,87 %
04.09.2019 20:18 16,0 C 14,4 C 14,4 C 93 % 1014,5 hPa 0,0 l/m 0 min 0 min 11 W/m 12,9 km/h (3 Bft) 97,83 %
04.09.2019 20:20 16,0 C 14,4 C 14,4 C 93 % 1014,5 hPa 0,0 l/m 0 min 0 min 8 W/m 9,7 km/h (2 Bft) 97,87 %
04.09.2019 20:22 16,0 C 14,4 C 14,4 C 93 % 1014,5 hPa 0,0 l/m 0 min 0 min 5 W/m 6,4 km/h (2 Bft) 95,74 %
04.09.2019 20:24 15,9 C 14,4 C 14,4 C 93 % 1014,5 hPa 0,0 l/m 0 min 0 min 2 W/m 9,7 km/h (2 Bft) 97,87 %
04.09.2019 20:26 15,9 C 14,4 C 14,4 C 93 % 1014,7 hPa 0,0 l/m 0 min 0 min 0 W/m 6,4 km/h (2 Bft) 97,87 %
04.09.2019 20:28 15,9 C 14,4 C 14,4 C 93 % 1014,6 hPa 0,0 l/m 0 min 0 min 0 W/m 6,4 km/h (2 Bft) 97,83 %
04.09.2019 20:30 15,9 C 14,4 C 14,4 C 93 % 1014,5 hPa 0,0 l/m 0 min 0 min 0 W/m 9,7 km/h (2 Bft) 97,87 %
04.09.2019 20:32 15,9 C 14,4 C 14,4 C 93 % 1014,6 hPa 0,0 l/m 0 min 0 min 0 W/m 3,2 km/h (1 Bft) 97,87 %
04.09.2019 20:34 15,9 C 14,4 C 14,4 C 93 % 1014,6 hPa 0,0 l/m 0 min 0 min 0 W/m 6,4 km/h (2 Bft) 97,87 %
04.09.2019 20:36 15,9 C 14,4 C 14,4 C 93 % 1014,6 hPa 0,0 l/m 0 min 0 min 0 W/m 6,4 km/h (2 Bft) 97,87 %
04.09.2019 20:38 15,9 C 14,4 C 14,4 C 93 % 1014,6 hPa 0,0 l/m 0 min 0 min 0 W/m 12,9 km/h (3 Bft) 97,87 %
04.09.2019 20:40 15,9 C 14,4 C 14,4 C 94 % 1014,7 hPa 0,0 l/m 0 min 0 min 0 W/m 6,4 km/h (2 Bft) 97,83 %
04.09.2019 20:42 15,9 C 14,4 C 14,4 C 94 % 1014,7 hPa 0,0 l/m 0 min 0 min 0 W/m 6,4 km/h (2 Bft) 97,87 %
04.09.2019 20:44 15,9 C 14,4 C 14,4 C 94 % 1014,8 hPa 0,0 l/m 0 min 0 min 0 W/m 12,9 km/h (3 Bft) 95,74 %
04.09.2019 20:46 15,9 C 14,4 C 14,4 C 94 % 1014,8 hPa 0,0 l/m 0 min 0 min 0 W/m 9,7 km/h (2 Bft) 95,74 %
04.09.2019 20:48 15,9 C 14,4 C 14,4 C 94 % 1014,9 hPa 0,0 l/m 0 min 0 min 0 W/m 3,2 km/h (1 Bft) 97,87 %
04.09.2019 20:50 15,9 C 14,4 C 14,4 C 94 % 1015,0 hPa 0,0 l/m 0 min 0 min 0 W/m 3,2 km/h (1 Bft) 95,74 %
04.09.2019 20:52 15,9 C 14,4 C 14,4 C 94 % 1014,9 hPa 0,0 l/m 0 min 0 min 0 W/m 3,2 km/h (1 Bft) 97,83 %
04.09.2019 20:54 15,9 C 14,4 C 14,4 C 94 % 1014,9 hPa 0,0 l/m 0 min 0 min 0 W/m 3,2 km/h (1 Bft) 97,87 %
04.09.2019 20:56 15,9 C 14,4 C 14,4 C 94 % 1015,0 hPa 0,0 l/m 0 min 0 min 0 W/m 6,4 km/h (2 Bft) 100,00 %
04.09.2019 20:58 15,9 C 14,4 C 14,4 C 94 % 1015,0 hPa 0,0 l/m 0 min 0 min 0 W/m 6,4 km/h (2 Bft) 100,00 %
04.09.2019 21:00 15,9 C 14,4 C 14,4 C 94 % 1015,1 hPa 0,0 l/m 0 min 0 min 0 W/m 6,4 km/h (2 Bft) 100,00 %
04.09.2019 21:02 15,9 C 14,4 C 14,4 C 94 % 1015,1 hPa 0,0 l/m 0 min 0 min 0 W/m 6,4 km/h (2 Bft) 100,00 %
04.09.2019 21:04 15,9 C 14,4 C 14,4 C 94 % 1015,1 hPa 0,0 l/m 0 min 0 min 0 W/m 6,4 km/h (2 Bft) 100,00 %
04.09.2019 21:06 15,9 C 14,4 C 14,4 C 94 % 1015,0 hPa 0,0 l/m 0 min 0 min 0 W/m 16,1 km/h (3 Bft) 100,00 %
04.09.2019 21:08 15,9 C 14,4 C 13,9 C 94 % 1015,0 hPa 0,0 l/m 0 min 0 min 0 W/m 6,4 km/h (2 Bft) 100,00 %
04.09.2019 21:10 15,8 C 14,4 C 13,9 C 94 % 1015,0 hPa 0,0 l/m 0 min 0 min 0 W/m 9,7 km/h (2 Bft) 100,00 %
04.09.2019 21:12 15,8 C 14,4 C 13,9 C 94 % 1015,0 hPa 0,0 l/m 0 min 0 min 0 W/m 6,4 km/h (2 Bft) 97,87 %
04.09.2019 21:14 15,8 C 14,4 C 13,9 C 94 % 1015,0 hPa 0,0 l/m 0 min 0 min 0 W/m 6,4 km/h (2 Bft) 100,00 %
04.09.2019 21:16 15,8 C 14,4 C 13,9 C 94 % 1015,0 hPa 0,0 l/m 0 min 0 min 0 W/m 6,4 km/h (2 Bft) 100,00 %
04.09.2019 21:18 15,8 C 14,4 C 13,9 C 94 % 1015,0 hPa 0,0 l/m 0 min 0 min 0 W/m 6,4 km/h (2 Bft) 100,00 %
04.09.2019 21:20 15,8 C 14,4 C 13,9 C 94 % 1014,9 hPa 0,0 l/m 0 min 0 min 0 W/m 6,4 km/h (2 Bft) 100,00 %
04.09.2019 21:22 15,7 C 14,4 C 13,9 C 94 % 1014,9 hPa 0,0 l/m 0 min 0 min 0 W/m 6,4 km/h (2 Bft) 100,00 %
04.09.2019 21:24 15,7 C 14,4 C 13,9 C 94 % 1014,9 hPa 0,0 l/m 0 min 0 min 0 W/m 12,9 km/h (3 Bft) 100,00 %
04.09.2019 21:26 15,7 C 14,4 C 13,9 C 94 % 1014,9 hPa 0,0 l/m 0 min 0 min 0 W/m 9,7 km/h (2 Bft) 100,00 %
04.09.2019 21:28 15,7 C 14,4 C 13,9 C 94 % 1015,0 hPa 0,0 l/m 0 min 0 min 0 W/m 9,7 km/h (2 Bft) 97,83 %
04.09.2019 21:30 15,7 C 13,9 C 13,9 C 94 % 1015,0 hPa 0,0 l/m 0 min 0 min 0 W/m 6,4 km/h (2 Bft) 100,00 %
04.09.2019 21:32 15,7 C 13,9 C 13,9 C 94 % 1015,0 hPa 0,0 l/m 0 min 0 min 0 W/m 6,4 km/h (2 Bft) 100,00 %
04.09.2019 21:34 15,6 C 13,9 C 13,9 C 94 % 1015,0 hPa 0,0 l/m 0 min 0 min 0 W/m 0,0 km/h (0 Bft) 100,00 %
04.09.2019 21:36 15,6 C 13,9 C 13,9 C 94 % 1015,0 hPa 0,0 l/m 0 min 0 min 0 W/m 6,4 km/h (2 Bft) 100,00 %
04.09.2019 21:38 15,6 C 13,9 C 13,9 C 94 % 1015,0 hPa 0,0 l/m 0 min 0 min 0 W/m 3,2 km/h (1 Bft) 100,00 %
04.09.2019 21:40 15,6 C 13,9 C 13,9 C 94 % 1015,0 hPa 0,0 l/m 0 min 0 min 0 W/m 3,2 km/h (1 Bft) 100,00 %
04.09.2019 21:42 15,6 C 13,9 C 13,9 C 94 % 1015,0 hPa 0,0 l/m 0 min 0 min 0 W/m 6,4 km/h (2 Bft) 100,00 %
04.09.2019 21:44 15,5 C 13,9 C 13,9 C 94 % 1015,0 hPa 0,0 l/m 0 min 0 min 0 W/m 9,7 km/h (2 Bft) 100,00 %
04.09.2019 21:46 15,5 C 13,9 C 13,9 C 94 % 1015,0 hPa 0,0 l/m 0 min 0 min 0 W/m 19,3 km/h (3 Bft) 100,00 %
04.09.2019 21:48 15,5 C 13,9 C 13,9 C 94 % 1015,1 hPa 0,0 l/m 0 min 0 min 0 W/m 9,7 km/h (2 Bft) 100,00 %
04.09.2019 21:50 15,4 C 13,9 C 13,9 C 94 % 1015,1 hPa 0,0 l/m 0 min 0 min 0 W/m 6,4 km/h (2 Bft) 100,00 %
04.09.2019 21:52 15,4 C 13,9 C 13,9 C 94 % 1015,1 hPa 0,0 l/m 0 min 0 min 0 W/m 3,2 km/h (1 Bft) 100,00 %
04.09.2019 21:54 15,4 C 13,9 C 13,9 C 94 % 1015,1 hPa 0,0 l/m 0 min 0 min 0 W/m 3,2 km/h (1 Bft) 100,00 %
04.09.2019 21:56 15,4 C 13,9 C 13,9 C 94 % 1015,1 hPa 0,0 l/m 0 min 0 min 0 W/m 3,2 km/h (1 Bft) 100,00 %
04.09.2019 21:58 15,4 C 13,9 C 13,9 C 94 % 1015,0 hPa 0,0 l/m 0 min 0 min 0 W/m 0,0 km/h (0 Bft) 100,00 %
04.09.2019 22:01 15,4 C 13,9 C 13,9 C 94 % 1015,1 hPa 0,0 l/m 0 min 0 min 0 W/m 3,2 km/h (1 Bft) 100,00 %
04.09.2019 22:02 15,4 C 13,9 C 13,9 C 94 % 1015,1 hPa 0,0 l/m 0 min 0 min 0 W/m 0,0 km/h (0 Bft) 100,00 %
04.09.2019 22:04 15,4 C 13,9 C 13,9 C 94 % 1015,1 hPa 0,0 l/m 0 min 0 min 0 W/m 12,9 km/h (3 Bft) 100,00 %
04.09.2019 22:06 15,4 C 13,9 C 13,9 C 94 % 1015,1 hPa 0,0 l/m 0 min 0 min 0 W/m 6,4 km/h (2 Bft) 100,00 %
04.09.2019 22:08 15,4 C 13,9 C 13,9 C 94 % 1015,1 hPa 0,0 l/m 0 min 0 min 0 W/m 3,2 km/h (1 Bft) 100,00 %
04.09.2019 22:10 15,3 C 13,9 C 13,9 C 94 % 1015,0 hPa 0,0 l/m 0 min 0 min 0 W/m 9,7 km/h (2 Bft) 100,00 %
04.09.2019 22:12 15,3 C 13,9 C 13,9 C 95 % 1015,0 hPa 0,0 l/m 0 min 0 min 0 W/m 3,2 km/h (1 Bft) 100,00 %
04.09.2019 22:14 15,3 C 14,4 C 13,9 C 95 % 1015,0 hPa 0,0 l/m 0 min 0 min 0 W/m 6,4 km/h (2 Bft) 100,00 %
04.09.2019 22:16 15,3 C 14,4 C 13,9 C 95 % 1015,0 hPa 0,0 l/m 0 min 0 min 0 W/m 3,2 km/h (1 Bft) 97,87 %
04.09.2019 22:18 15,3 C 14,4 C 13,9 C 95 % 1015,0 hPa 0,0 l/m 0 min 0 min 0 W/m 6,4 km/h (2 Bft) 97,87 %
04.09.2019 22:20 15,3 C 14,4 C 13,9 C 95 % 1015,0 hPa 0,0 l/m 0 min 2 min 0 W/m 9,7 km/h (2 Bft) 93,62 %
04.09.2019 22:22 15,3 C 14,4 C 13,9 C 95 % 1015,0 hPa 0,0 l/m 0 min 0 min 0 W/m 3,2 km/h (1 Bft) 93,62 %
04.09.2019 22:24 15,3 C 14,4 C 13,9 C 95 % 1015,0 hPa 0,0 l/m 0 min 2 min 0 W/m 0,0 km/h (0 Bft) 100,00 %
04.09.2019 22:26 15,4 C 14,4 C 13,9 C 95 % 1015,0 hPa 0,0 l/m 0 min 2 min 0 W/m 9,7 km/h (2 Bft) 97,83 %
04.09.2019 22:28 15,4 C 14,4 C 13,9 C 95 % 1015,0 hPa 0,0 l/m 0 min 2 min 0 W/m 6,4 km/h (2 Bft) 97,87 %
04.09.2019 22:30 15,4 C 14,4 C 13,9 C 95 % 1015,0 hPa 0,0 l/m 0 min 2 min 0 W/m 9,7 km/h (2 Bft) 97,87 %
04.09.2019 22:32 15,4 C 14,4 C 13,9 C 95 % 1015,0 hPa 0,0 l/m 0 min 2 min 0 W/m 3,2 km/h (1 Bft) 95,74 %
04.09.2019 22:34 15,4 C 14,4 C 13,9 C 95 % 1015,0 hPa 0,2 l/m 0 min 2 min 0 W/m 3,2 km/h (1 Bft) 97,87 %
04.09.2019 22:36 15,4 C 14,4 C 13,9 C 95 % 1015,0 hPa 0,0 l/m 0 min 2 min 0 W/m 9,7 km/h (2 Bft) 93,62 %
04.09.2019 22:38 15,4 C 13,9 C 13,9 C 95 % 1015,0 hPa 0,0 l/m 0 min 2 min 0 W/m 6,4 km/h (2 Bft) 95,65 %
04.09.2019 22:40 15,4 C 14,4 C 13,9 C 95 % 1015,1 hPa 0,0 l/m 0 min 2 min 0 W/m 6,4 km/h (2 Bft) 91,49 %
04.09.2019 22:42 15,5 C 14,4 C 13,9 C 95 % 1015,0 hPa 0,0 l/m 0 min 0 min 0 W/m 3,2 km/h (1 Bft) 93,62 %
04.09.2019 22:44 15,5 C 14,4 C 13,9 C 95 % 1015,0 hPa 0,0 l/m 0 min 0 min 0 W/m 3,2 km/h (1 Bft) 95,74 %
04.09.2019 22:46 15,5 C 14,4 C 13,9 C 95 % 1015,3 hPa 0,2 l/m 0 min 2 min 0 W/m 9,7 km/h (2 Bft) 95,74 %
04.09.2019 22:48 15,6 C 13,9 C 13,9 C 95 % 1015,3 hPa 0,2 l/m 0 min 2 min 0 W/m 16,1 km/h (3 Bft) 93,62 %
04.09.2019 22:50 15,5 C 13,9 C 13,9 C 95 % 1015,3 hPa 0,0 l/m 0 min 2 min 0 W/m 6,4 km/h (2 Bft) 93,48 %
04.09.2019 22:52 15,5 C 13,9 C 13,9 C 95 % 1015,4 hPa 0,0 l/m 0 min 2 min 0 W/m 9,7 km/h (2 Bft) 95,74 %
04.09.2019 22:54 15,4 C 13,9 C 13,9 C 95 % 1015,5 hPa 0,2 l/m 0 min 2 min 0 W/m 3,2 km/h (1 Bft) 95,74 %
04.09.2019 22:56 15,4 C 13,9 C 13,9 C 95 % 1015,4 hPa 0,0 l/m 0 min 2 min 0 W/m 6,4 km/h (2 Bft) 91,49 %
04.09.2019 22:58 15,4 C 13,9 C 13,9 C 95 % 1015,4 hPa 0,0 l/m 0 min 2 min 0 W/m 6,4 km/h (2 Bft) 93,62 %
04.09.2019 23:00 15,3 C 13,9 C 13,9 C 95 % 1015,4 hPa 0,0 l/m 0 min 0 min 0 W/m 3,2 km/h (1 Bft) 91,49 %
04.09.2019 23:02 15,3 C 13,9 C 13,9 C 95 % 1015,4 hPa 0,0 l/m 0 min 0 min 0 W/m 3,2 km/h (1 Bft) 95,65 %
04.09.2019 23:04 15,3 C 13,9 C 13,9 C 95 % 1015,3 hPa 0,0 l/m 0 min 0 min 0 W/m 3,2 km/h (1 Bft) 95,74 %
04.09.2019 23:06 15,3 C 13,9 C 13,9 C 95 % 1015,3 hPa 0,0 l/m 0 min 2 min 0 W/m 3,2 km/h (1 Bft) 93,62 %
04.09.2019 23:08 15,2 C 13,9 C 13,9 C 95 % 1015,3 hPa 0,0 l/m 0 min 2 min 0 W/m 0,0 km/h (0 Bft) 95,74 %
04.09.2019 23:10 15,2 C 13,9 C 13,3 C 95 % 1015,3 hPa 0,0 l/m 0 min 2 min 0 W/m 3,2 km/h (1 Bft) 95,74 %
04.09.2019 23:12 15,2 C 13,9 C 13,3 C 95 % 1015,2 hPa 0,0 l/m 0 min 0 min 0 W/m 3,2 km/h (1 Bft) 95,65 %
04.09.2019 23:14 15,2 C 13,3 C 13,3 C 95 % 1015,3 hPa 0,0 l/m 0 min 0 min 0 W/m 6,4 km/h (2 Bft) 95,74 %
04.09.2019 23:16 15,1 C 13,3 C 13,3 C 95 % 1015,3 hPa 0,0 l/m 0 min 0 min 0 W/m 3,2 km/h (1 Bft) 95,74 %
04.09.2019 23:18 15,1 C 13,3 C 13,3 C 95 % 1015,4 hPa 0,0 l/m 0 min 0 min 0 W/m 0,0 km/h (0 Bft) 95,74 %
04.09.2019 23:20 15,1 C 13,3 C 13,3 C 95 % 1015,4 hPa 0,2 l/m 0 min 0 min 0 W/m 3,2 km/h (1 Bft) 93,62 %
04.09.2019 23:22 15,1 C 13,3 C 13,3 C 95 % 1015,3 hPa 0,0 l/m 0 min 0 min 0 W/m 3,2 km/h (1 Bft) 95,74 %
04.09.2019 23:24 15,0 C 13,3 C 13,3 C 96 % 1015,2 hPa 0,0 l/m 0 min 0 min 0 W/m 0,0 km/h (0 Bft) 95,65 %
04.09.2019 23:26 15,0 C 13,3 C 13,3 C 96 % 1015,2 hPa 0,0 l/m 0 min 0 min 0 W/m 3,2 km/h (1 Bft) 95,74 %
04.09.2019 23:28 15,0 C 13,3 C 13,3 C 96 % 1015,2 hPa 0,0 l/m 0 min 0 min 0 W/m 3,2 km/h (1 Bft) 95,74 %
04.09.2019 23:30 14,9 C 13,3 C 13,3 C 96 % 1015,2 hPa 0,0 l/m 0 min 0 min 0 W/m 3,2 km/h (1 Bft) 95,74 %
04.09.2019 23:32 14,9 C 13,3 C 13,3 C 96 % 1015,2 hPa 0,0 l/m 0 min 0 min 0 W/m 0,0 km/h (0 Bft) 89,36 %
04.09.2019 23:34 14,9 C 13,3 C 13,3 C 96 % 1015,2 hPa 0,0 l/m 0 min 0 min 0 W/m 0,0 km/h (0 Bft) 93,62 %
04.09.2019 23:36 14,9 C 13,3 C 13,3 C 95 % 1015,2 hPa 0,0 l/m 0 min 0 min 0 W/m 0,0 km/h (0 Bft) 93,48 %
04.09.2019 23:38 14,8 C 13,3 C 13,3 C 95 % 1015,2 hPa 0,0 l/m 0 min 0 min 0 W/m 0,0 km/h (0 Bft) 95,74 %
04.09.2019 23:40 14,8 C 13,3 C 13,3 C 95 % 1015,3 hPa 0,0 l/m 0 min 0 min 0 W/m 0,0 km/h (0 Bft) 95,74 %
04.09.2019 23:42 14,8 C 12,8 C 12,8 C 95 % 1015,3 hPa 0,0 l/m 0 min 0 min 0 W/m 0,0 km/h (0 Bft) 97,87 %
04.09.2019 23:44 14,8 C 12,8 C 12,8 C 95 % 1015,2 hPa 0,0 l/m 0 min 0 min 0 W/m 3,2 km/h (1 Bft) 100,00 %
04.09.2019 23:46 14,7 C 12,8 C 12,8 C 95 % 1015,2 hPa 0,0 l/m 0 min 0 min 0 W/m 0,0 km/h (0 Bft) 97,87 %
04.09.2019 23:48 14,7 C 12,8 C 12,8 C 95 % 1015,3 hPa 0,0 l/m 0 min 0 min 0 W/m 0,0 km/h (0 Bft) 100,00 %
04.09.2019 23:50 14,7 C 12,8 C 12,8 C 96 % 1015,3 hPa 0,0 l/m 0 min 0 min 0 W/m 0,0 km/h (0 Bft) 93,62 %
04.09.2019 23:52 14,7 C 12,8 C 12,8 C 95 % 1015,2 hPa 0,0 l/m 0 min 0 min 0 W/m 0,0 km/h (0 Bft) 100,00 %
04.09.2019 23:54 14,6 C 12,8 C 12,8 C 95 % 1015,3 hPa 0,0 l/m 0 min 0 min 0 W/m 0,0 km/h (0 Bft) 95,74 %
04.09.2019 23:56 14,6 C 12,8 C 12,8 C 95 % 1015,2 hPa 0,0 l/m 0 min 0 min 0 W/m 0,0 km/h (0 Bft) 100,00 %
04.09.2019 23:58 14,6 C 12,8 C 12,8 C 95 % 1015,2 hPa 0,0 l/m 0 min 0 min 0 W/m 0,0 km/h (0 Bft) 97,87 %
_ Min-Zeit 23:54 23:42 23:42 14:44 16:14 - - - - 00:12 23:32
Minimum _ 14,6 C 12,8 C 12,8 C 54 % 1013,4 hPa - - - - 0,0 km/h (0 Bft) 89,36 %
_ Max-Zeit 14:30 14:22 13:54 23:24 00:12 17:48 12:08 18:08 14:12 14:30 00:00
Maximum _ 24,8 C 30,6 C 28,9 C 96 % 1022,5 hPa 0,2 l/m 4 min 4 min 985 W/m 35,4 km/h
O-SO (5 Bft)
100,00 %
Durchschnitt _ 18,1 C 18,0 C 17,3 C 78 % 1017,0 hPa #2,2 l/m #5:22 h #2:30 h 295 W/m 11,4 km/h (2 Bft) 97,57 %
© 2019 W. Hausmann